<?xml version="1.0" encoding="UTF-8" standalone="no" ?>
<gpx xmlns="http://www.topografix.com/GPX/1/1" xmlns:xsi="http://www.w3.org/2001/XMLSchema-instance" xsi:schemaLocation="http://www.topografix.com/GPX/1/1 http://www.topografix.com/GPX/1/1/gpx.xsd" version="1.1" creator="VisuGPX - https://www.visugpx.com">
  <metadata>
    <name>La Petite Saulire (Vanoise)</name>
    <desc><![CDATA[Départ des Chalets de Pralong, montée par le lac des Creux et la combe Nord.
Descente par le même itinéraire.
Photos et commentaires sur : [url]http://www.photosrandos.fr[/url]]]></desc>
  </metadata>
  <trk>
    <name><![CDATA[3 déc. 2017 à 10:20:48]]></name>
    <cmt><![CDATA[3 déc. 2017 à 10:20:48]]></cmt>
    <trkseg>
      <trkpt lat="45.39777" lon="6.63296">
        <ele>1975</ele>
        <time>2017-12-03T09:20:48Z</time>
      </trkpt>
      <trkpt lat="45.3977" lon="6.63294">
        <ele>1979</ele>
        <time>2017-12-03T09:21:11Z</time>
      </trkpt>
      <trkpt lat="45.39767" lon="6.63284">
        <ele>1982</ele>
        <time>2017-12-03T09:21:47Z</time>
      </trkpt>
      <trkpt lat="45.39765" lon="6.63278">
        <ele>1981</ele>
        <time>2017-12-03T09:21:53Z</time>
      </trkpt>
      <trkpt lat="45.39762" lon="6.63268">
        <ele>1981</ele>
        <time>2017-12-03T09:22:09Z</time>
      </trkpt>
      <trkpt lat="45.39755" lon="6.63257">
        <ele>1984</ele>
        <time>2017-12-03T09:22:22Z</time>
      </trkpt>
      <trkpt lat="45.39745" lon="6.6325">
        <ele>1989</ele>
        <time>2017-12-03T09:22:41Z</time>
      </trkpt>
      <trkpt lat="45.39739" lon="6.63251">
        <ele>1990</ele>
        <time>2017-12-03T09:22:57Z</time>
      </trkpt>
      <trkpt lat="45.39736" lon="6.63245">
        <ele>1990</ele>
        <time>2017-12-03T09:23:36Z</time>
      </trkpt>
      <trkpt lat="45.39736" lon="6.63237">
        <ele>1991</ele>
        <time>2017-12-03T09:23:52Z</time>
      </trkpt>
      <trkpt lat="45.39733" lon="6.63229">
        <ele>1992</ele>
        <time>2017-12-03T09:23:59Z</time>
      </trkpt>
      <trkpt lat="45.3973" lon="6.63224">
        <ele>1993</ele>
        <time>2017-12-03T09:24:04Z</time>
      </trkpt>
      <trkpt lat="45.39722" lon="6.63216">
        <ele>1994</ele>
        <time>2017-12-03T09:24:12Z</time>
      </trkpt>
      <trkpt lat="45.39718" lon="6.63209">
        <ele>1996</ele>
        <time>2017-12-03T09:24:25Z</time>
      </trkpt>
      <trkpt lat="45.39715" lon="6.63205">
        <ele>1997</ele>
        <time>2017-12-03T09:24:31Z</time>
      </trkpt>
      <trkpt lat="45.39713" lon="6.63194">
        <ele>1998</ele>
        <time>2017-12-03T09:24:42Z</time>
      </trkpt>
      <trkpt lat="45.39715" lon="6.63188">
        <ele>2000</ele>
        <time>2017-12-03T09:24:56Z</time>
      </trkpt>
      <trkpt lat="45.39716" lon="6.63179">
        <ele>2001</ele>
        <time>2017-12-03T09:25:07Z</time>
      </trkpt>
      <trkpt lat="45.39717" lon="6.63168">
        <ele>2003</ele>
        <time>2017-12-03T09:25:22Z</time>
      </trkpt>
      <trkpt lat="45.39719" lon="6.63144">
        <ele>2008</ele>
        <time>2017-12-03T09:25:49Z</time>
      </trkpt>
      <trkpt lat="45.39717" lon="6.63138">
        <ele>2010</ele>
        <time>2017-12-03T09:25:56Z</time>
      </trkpt>
      <trkpt lat="45.39709" lon="6.63133">
        <ele>2013</ele>
        <time>2017-12-03T09:26:12Z</time>
      </trkpt>
      <trkpt lat="45.39703" lon="6.63126">
        <ele>2017</ele>
        <time>2017-12-03T09:26:36Z</time>
      </trkpt>
      <trkpt lat="45.39686" lon="6.63132">
        <ele>2023</ele>
        <time>2017-12-03T09:27:14Z</time>
      </trkpt>
      <trkpt lat="45.39681" lon="6.63134">
        <ele>2024</ele>
        <time>2017-12-03T09:27:21Z</time>
      </trkpt>
      <trkpt lat="45.39677" lon="6.63133">
        <ele>2026</ele>
        <time>2017-12-03T09:27:26Z</time>
      </trkpt>
      <trkpt lat="45.39667" lon="6.63136">
        <ele>2028</ele>
        <time>2017-12-03T09:27:35Z</time>
      </trkpt>
      <trkpt lat="45.39663" lon="6.63133">
        <ele>2028</ele>
        <time>2017-12-03T09:27:44Z</time>
      </trkpt>
      <trkpt lat="45.39658" lon="6.63129">
        <ele>2030</ele>
        <time>2017-12-03T09:27:58Z</time>
      </trkpt>
      <trkpt lat="45.39653" lon="6.63131">
        <ele>2030</ele>
        <time>2017-12-03T09:28:03Z</time>
      </trkpt>
      <trkpt lat="45.39648" lon="6.63129">
        <ele>2031</ele>
        <time>2017-12-03T09:28:10Z</time>
      </trkpt>
      <trkpt lat="45.39641" lon="6.6313">
        <ele>2032</ele>
        <time>2017-12-03T09:28:23Z</time>
      </trkpt>
      <trkpt lat="45.39631" lon="6.63134">
        <ele>2036</ele>
        <time>2017-12-03T09:28:44Z</time>
      </trkpt>
      <trkpt lat="45.39619" lon="6.63133">
        <ele>2040</ele>
        <time>2017-12-03T09:29:04Z</time>
      </trkpt>
      <trkpt lat="45.39614" lon="6.63136">
        <ele>2040</ele>
        <time>2017-12-03T09:29:08Z</time>
      </trkpt>
      <trkpt lat="45.39591" lon="6.63145">
        <ele>2047</ele>
        <time>2017-12-03T09:29:47Z</time>
      </trkpt>
      <trkpt lat="45.39587" lon="6.63147">
        <ele>2048</ele>
        <time>2017-12-03T09:29:52Z</time>
      </trkpt>
      <trkpt lat="45.39577" lon="6.63152">
        <ele>2049</ele>
        <time>2017-12-03T09:30:01Z</time>
      </trkpt>
      <trkpt lat="45.39562" lon="6.63153">
        <ele>2050</ele>
        <time>2017-12-03T09:30:18Z</time>
      </trkpt>
      <trkpt lat="45.39561" lon="6.63145">
        <ele>2049</ele>
        <time>2017-12-03T09:30:38Z</time>
      </trkpt>
      <trkpt lat="45.39557" lon="6.63151">
        <ele>2045</ele>
        <time>2017-12-03T09:32:44Z</time>
      </trkpt>
      <trkpt lat="45.39547" lon="6.63155">
        <ele>2043</ele>
        <time>2017-12-03T09:33:44Z</time>
      </trkpt>
      <trkpt lat="45.39543" lon="6.63158">
        <ele>2042</ele>
        <time>2017-12-03T09:33:49Z</time>
      </trkpt>
      <trkpt lat="45.39528" lon="6.63161">
        <ele>2042</ele>
        <time>2017-12-03T09:34:02Z</time>
      </trkpt>
      <trkpt lat="45.39504" lon="6.63155">
        <ele>2043</ele>
        <time>2017-12-03T09:34:34Z</time>
      </trkpt>
      <trkpt lat="45.3948" lon="6.63151">
        <ele>2045</ele>
        <time>2017-12-03T09:35:10Z</time>
      </trkpt>
      <trkpt lat="45.39476" lon="6.63147">
        <ele>2045</ele>
        <time>2017-12-03T09:35:17Z</time>
      </trkpt>
      <trkpt lat="45.39471" lon="6.63147">
        <ele>2046</ele>
        <time>2017-12-03T09:35:23Z</time>
      </trkpt>
      <trkpt lat="45.39462" lon="6.63148">
        <ele>2046</ele>
        <time>2017-12-03T09:35:34Z</time>
      </trkpt>
      <trkpt lat="45.39456" lon="6.63144">
        <ele>2047</ele>
        <time>2017-12-03T09:35:48Z</time>
      </trkpt>
      <trkpt lat="45.39445" lon="6.6314">
        <ele>2047</ele>
        <time>2017-12-03T09:35:56Z</time>
      </trkpt>
      <trkpt lat="45.39433" lon="6.63136">
        <ele>2049</ele>
        <time>2017-12-03T09:36:15Z</time>
      </trkpt>
      <trkpt lat="45.39423" lon="6.63138">
        <ele>2049</ele>
        <time>2017-12-03T09:36:26Z</time>
      </trkpt>
      <trkpt lat="45.39419" lon="6.63137">
        <ele>2049</ele>
        <time>2017-12-03T09:36:32Z</time>
      </trkpt>
      <trkpt lat="45.39414" lon="6.63136">
        <ele>2048</ele>
        <time>2017-12-03T09:36:42Z</time>
      </trkpt>
      <trkpt lat="45.39409" lon="6.63134">
        <ele>2048</ele>
        <time>2017-12-03T09:36:48Z</time>
      </trkpt>
      <trkpt lat="45.39401" lon="6.63127">
        <ele>2048</ele>
        <time>2017-12-03T09:36:58Z</time>
      </trkpt>
      <trkpt lat="45.39383" lon="6.63127">
        <ele>2051</ele>
        <time>2017-12-03T09:37:26Z</time>
      </trkpt>
      <trkpt lat="45.39378" lon="6.63126">
        <ele>2051</ele>
        <time>2017-12-03T09:37:32Z</time>
      </trkpt>
      <trkpt lat="45.39369" lon="6.6313">
        <ele>2052</ele>
        <time>2017-12-03T09:37:44Z</time>
      </trkpt>
      <trkpt lat="45.39353" lon="6.63126">
        <ele>2055</ele>
        <time>2017-12-03T09:38:07Z</time>
      </trkpt>
      <trkpt lat="45.3935" lon="6.63122">
        <ele>2056</ele>
        <time>2017-12-03T09:38:14Z</time>
      </trkpt>
      <trkpt lat="45.3934" lon="6.6312">
        <ele>2056</ele>
        <time>2017-12-03T09:38:27Z</time>
      </trkpt>
      <trkpt lat="45.39335" lon="6.63119">
        <ele>2057</ele>
        <time>2017-12-03T09:38:34Z</time>
      </trkpt>
      <trkpt lat="45.39331" lon="6.63118">
        <ele>2057</ele>
        <time>2017-12-03T09:38:41Z</time>
      </trkpt>
      <trkpt lat="45.39326" lon="6.63118">
        <ele>2058</ele>
        <time>2017-12-03T09:38:48Z</time>
      </trkpt>
      <trkpt lat="45.39321" lon="6.63119">
        <ele>2058</ele>
        <time>2017-12-03T09:38:52Z</time>
      </trkpt>
      <trkpt lat="45.39307" lon="6.63115">
        <ele>2060</ele>
        <time>2017-12-03T09:39:13Z</time>
      </trkpt>
      <trkpt lat="45.39304" lon="6.63111">
        <ele>2061</ele>
        <time>2017-12-03T09:39:19Z</time>
      </trkpt>
      <trkpt lat="45.39299" lon="6.63115">
        <ele>2062</ele>
        <time>2017-12-03T09:39:25Z</time>
      </trkpt>
      <trkpt lat="45.39295" lon="6.63117">
        <ele>2063</ele>
        <time>2017-12-03T09:39:32Z</time>
      </trkpt>
      <trkpt lat="45.3929" lon="6.63119">
        <ele>2063</ele>
        <time>2017-12-03T09:39:36Z</time>
      </trkpt>
      <trkpt lat="45.39286" lon="6.63115">
        <ele>2064</ele>
        <time>2017-12-03T09:39:42Z</time>
      </trkpt>
      <trkpt lat="45.39281" lon="6.63113">
        <ele>2064</ele>
        <time>2017-12-03T09:39:50Z</time>
      </trkpt>
      <trkpt lat="45.39276" lon="6.63115">
        <ele>2065</ele>
        <time>2017-12-03T09:39:54Z</time>
      </trkpt>
      <trkpt lat="45.39271" lon="6.63114">
        <ele>2065</ele>
        <time>2017-12-03T09:39:57Z</time>
      </trkpt>
      <trkpt lat="45.39267" lon="6.63111">
        <ele>2066</ele>
        <time>2017-12-03T09:40:04Z</time>
      </trkpt>
      <trkpt lat="45.39257" lon="6.63112">
        <ele>2067</ele>
        <time>2017-12-03T09:40:15Z</time>
      </trkpt>
      <trkpt lat="45.39252" lon="6.63114">
        <ele>2067</ele>
        <time>2017-12-03T09:40:20Z</time>
      </trkpt>
      <trkpt lat="45.39236" lon="6.63117">
        <ele>2070</ele>
        <time>2017-12-03T09:40:44Z</time>
      </trkpt>
      <trkpt lat="45.39233" lon="6.63113">
        <ele>2070</ele>
        <time>2017-12-03T09:40:53Z</time>
      </trkpt>
      <trkpt lat="45.39223" lon="6.63115">
        <ele>2072</ele>
        <time>2017-12-03T09:41:03Z</time>
      </trkpt>
      <trkpt lat="45.39219" lon="6.63109">
        <ele>2073</ele>
        <time>2017-12-03T09:41:09Z</time>
      </trkpt>
      <trkpt lat="45.39214" lon="6.63111">
        <ele>2073</ele>
        <time>2017-12-03T09:41:13Z</time>
      </trkpt>
      <trkpt lat="45.39209" lon="6.63109">
        <ele>2074</ele>
        <time>2017-12-03T09:41:19Z</time>
      </trkpt>
      <trkpt lat="45.39204" lon="6.63111">
        <ele>2074</ele>
        <time>2017-12-03T09:41:22Z</time>
      </trkpt>
      <trkpt lat="45.39198" lon="6.63116">
        <ele>2075</ele>
        <time>2017-12-03T09:41:24Z</time>
      </trkpt>
      <trkpt lat="45.39193" lon="6.63113">
        <ele>2076</ele>
        <time>2017-12-03T09:41:32Z</time>
      </trkpt>
      <trkpt lat="45.39193" lon="6.63105">
        <ele>2076</ele>
        <time>2017-12-03T09:41:37Z</time>
      </trkpt>
      <trkpt lat="45.39189" lon="6.631">
        <ele>2077</ele>
        <time>2017-12-03T09:41:45Z</time>
      </trkpt>
      <trkpt lat="45.39186" lon="6.63095">
        <ele>2078</ele>
        <time>2017-12-03T09:41:51Z</time>
      </trkpt>
      <trkpt lat="45.39181" lon="6.63095">
        <ele>2078</ele>
        <time>2017-12-03T09:41:58Z</time>
      </trkpt>
      <trkpt lat="45.39176" lon="6.63096">
        <ele>2079</ele>
        <time>2017-12-03T09:42:00Z</time>
      </trkpt>
      <trkpt lat="45.39171" lon="6.63093">
        <ele>2079</ele>
        <time>2017-12-03T09:42:10Z</time>
      </trkpt>
      <trkpt lat="45.39164" lon="6.63088">
        <ele>2080</ele>
        <time>2017-12-03T09:42:22Z</time>
      </trkpt>
      <trkpt lat="45.39149" lon="6.63085">
        <ele>2081</ele>
        <time>2017-12-03T09:42:37Z</time>
      </trkpt>
      <trkpt lat="45.39143" lon="6.63085">
        <ele>2081</ele>
        <time>2017-12-03T09:42:45Z</time>
      </trkpt>
      <trkpt lat="45.39137" lon="6.63086">
        <ele>2082</ele>
        <time>2017-12-03T09:42:50Z</time>
      </trkpt>
      <trkpt lat="45.39132" lon="6.63084">
        <ele>2082</ele>
        <time>2017-12-03T09:42:57Z</time>
      </trkpt>
      <trkpt lat="45.39127" lon="6.63075">
        <ele>2082</ele>
        <time>2017-12-03T09:43:05Z</time>
      </trkpt>
      <trkpt lat="45.39116" lon="6.63083">
        <ele>2082</ele>
        <time>2017-12-03T09:43:15Z</time>
      </trkpt>
      <trkpt lat="45.39107" lon="6.63082">
        <ele>2082</ele>
        <time>2017-12-03T09:43:22Z</time>
      </trkpt>
      <trkpt lat="45.39102" lon="6.63082">
        <ele>2082</ele>
        <time>2017-12-03T09:43:30Z</time>
      </trkpt>
      <trkpt lat="45.39098" lon="6.63083">
        <ele>2082</ele>
        <time>2017-12-03T09:43:35Z</time>
      </trkpt>
      <trkpt lat="45.39078" lon="6.63075">
        <ele>2083</ele>
        <time>2017-12-03T09:43:59Z</time>
      </trkpt>
      <trkpt lat="45.39074" lon="6.63073">
        <ele>2083</ele>
        <time>2017-12-03T09:44:05Z</time>
      </trkpt>
      <trkpt lat="45.39064" lon="6.63074">
        <ele>2084</ele>
        <time>2017-12-03T09:44:15Z</time>
      </trkpt>
      <trkpt lat="45.3906" lon="6.63077">
        <ele>2085</ele>
        <time>2017-12-03T09:44:22Z</time>
      </trkpt>
      <trkpt lat="45.3905" lon="6.63079">
        <ele>2086</ele>
        <time>2017-12-03T09:44:37Z</time>
      </trkpt>
      <trkpt lat="45.39046" lon="6.63081">
        <ele>2087</ele>
        <time>2017-12-03T09:44:44Z</time>
      </trkpt>
      <trkpt lat="45.3904" lon="6.63083">
        <ele>2087</ele>
        <time>2017-12-03T09:44:50Z</time>
      </trkpt>
      <trkpt lat="45.39031" lon="6.63087">
        <ele>2089</ele>
        <time>2017-12-03T09:45:04Z</time>
      </trkpt>
      <trkpt lat="45.39027" lon="6.63085">
        <ele>2090</ele>
        <time>2017-12-03T09:45:10Z</time>
      </trkpt>
      <trkpt lat="45.39008" lon="6.63096">
        <ele>2093</ele>
        <time>2017-12-03T09:45:33Z</time>
      </trkpt>
      <trkpt lat="45.39004" lon="6.63093">
        <ele>2093</ele>
        <time>2017-12-03T09:45:42Z</time>
      </trkpt>
      <trkpt lat="45.38994" lon="6.63097">
        <ele>2095</ele>
        <time>2017-12-03T09:45:56Z</time>
      </trkpt>
      <trkpt lat="45.38989" lon="6.63096">
        <ele>2095</ele>
        <time>2017-12-03T09:46:03Z</time>
      </trkpt>
      <trkpt lat="45.38984" lon="6.63098">
        <ele>2096</ele>
        <time>2017-12-03T09:46:09Z</time>
      </trkpt>
      <trkpt lat="45.38984" lon="6.63104">
        <ele>2098</ele>
        <time>2017-12-03T09:46:29Z</time>
      </trkpt>
      <trkpt lat="45.38973" lon="6.63108">
        <ele>2101</ele>
        <time>2017-12-03T09:46:50Z</time>
      </trkpt>
      <trkpt lat="45.3897" lon="6.63115">
        <ele>2102</ele>
        <time>2017-12-03T09:47:05Z</time>
      </trkpt>
      <trkpt lat="45.38965" lon="6.63122">
        <ele>2105</ele>
        <time>2017-12-03T09:47:26Z</time>
      </trkpt>
      <trkpt lat="45.38952" lon="6.63126">
        <ele>2108</ele>
        <time>2017-12-03T09:47:44Z</time>
      </trkpt>
      <trkpt lat="45.38944" lon="6.63134">
        <ele>2108</ele>
        <time>2017-12-03T09:47:55Z</time>
      </trkpt>
      <trkpt lat="45.38928" lon="6.63143">
        <ele>2108</ele>
        <time>2017-12-03T09:48:21Z</time>
      </trkpt>
      <trkpt lat="45.3892" lon="6.63146">
        <ele>2109</ele>
        <time>2017-12-03T09:48:39Z</time>
      </trkpt>
      <trkpt lat="45.38915" lon="6.63152">
        <ele>2109</ele>
        <time>2017-12-03T09:48:42Z</time>
      </trkpt>
      <trkpt lat="45.3891" lon="6.63154">
        <ele>2109</ele>
        <time>2017-12-03T09:48:46Z</time>
      </trkpt>
      <trkpt lat="45.38906" lon="6.63153">
        <ele>2110</ele>
        <time>2017-12-03T09:48:54Z</time>
      </trkpt>
      <trkpt lat="45.38904" lon="6.63159">
        <ele>2112</ele>
        <time>2017-12-03T09:49:26Z</time>
      </trkpt>
      <trkpt lat="45.389" lon="6.63162">
        <ele>2113</ele>
        <time>2017-12-03T09:49:32Z</time>
      </trkpt>
      <trkpt lat="45.38894" lon="6.63161">
        <ele>2115</ele>
        <time>2017-12-03T09:49:46Z</time>
      </trkpt>
      <trkpt lat="45.38889" lon="6.63156">
        <ele>2117</ele>
        <time>2017-12-03T09:50:00Z</time>
      </trkpt>
      <trkpt lat="45.38885" lon="6.63161">
        <ele>2117</ele>
        <time>2017-12-03T09:50:05Z</time>
      </trkpt>
      <trkpt lat="45.38884" lon="6.63172">
        <ele>2121</ele>
        <time>2017-12-03T09:50:31Z</time>
      </trkpt>
      <trkpt lat="45.38885" lon="6.63179">
        <ele>2121</ele>
        <time>2017-12-03T09:50:36Z</time>
      </trkpt>
      <trkpt lat="45.38882" lon="6.63185">
        <ele>2123</ele>
        <time>2017-12-03T09:50:47Z</time>
      </trkpt>
      <trkpt lat="45.38875" lon="6.63189">
        <ele>2125</ele>
        <time>2017-12-03T09:51:05Z</time>
      </trkpt>
      <trkpt lat="45.38871" lon="6.63186">
        <ele>2127</ele>
        <time>2017-12-03T09:51:19Z</time>
      </trkpt>
      <trkpt lat="45.38866" lon="6.63179">
        <ele>2129</ele>
        <time>2017-12-03T09:51:35Z</time>
      </trkpt>
      <trkpt lat="45.38861" lon="6.63185">
        <ele>2131</ele>
        <time>2017-12-03T09:51:58Z</time>
      </trkpt>
      <trkpt lat="45.38856" lon="6.63194">
        <ele>2134</ele>
        <time>2017-12-03T09:52:20Z</time>
      </trkpt>
      <trkpt lat="45.38852" lon="6.6319">
        <ele>2135</ele>
        <time>2017-12-03T09:52:34Z</time>
      </trkpt>
      <trkpt lat="45.38847" lon="6.63192">
        <ele>2137</ele>
        <time>2017-12-03T09:52:43Z</time>
      </trkpt>
      <trkpt lat="45.38841" lon="6.63198">
        <ele>2140</ele>
        <time>2017-12-03T09:53:05Z</time>
      </trkpt>
      <trkpt lat="45.38836" lon="6.63201">
        <ele>2142</ele>
        <time>2017-12-03T09:53:26Z</time>
      </trkpt>
      <trkpt lat="45.38837" lon="6.63193">
        <ele>2142</ele>
        <time>2017-12-03T09:53:29Z</time>
      </trkpt>
      <trkpt lat="45.38832" lon="6.63196">
        <ele>2143</ele>
        <time>2017-12-03T09:53:45Z</time>
      </trkpt>
      <trkpt lat="45.38824" lon="6.63206">
        <ele>2144</ele>
        <time>2017-12-03T09:53:57Z</time>
      </trkpt>
      <trkpt lat="45.38816" lon="6.63213">
        <ele>2145</ele>
        <time>2017-12-03T09:54:06Z</time>
      </trkpt>
      <trkpt lat="45.38804" lon="6.63225">
        <ele>2147</ele>
        <time>2017-12-03T09:54:25Z</time>
      </trkpt>
      <trkpt lat="45.38793" lon="6.63227">
        <ele>2148</ele>
        <time>2017-12-03T09:54:41Z</time>
      </trkpt>
      <trkpt lat="45.38789" lon="6.63229">
        <ele>2149</ele>
        <time>2017-12-03T09:54:47Z</time>
      </trkpt>
      <trkpt lat="45.38784" lon="6.6323">
        <ele>2150</ele>
        <time>2017-12-03T09:54:57Z</time>
      </trkpt>
      <trkpt lat="45.38773" lon="6.63236">
        <ele>2151</ele>
        <time>2017-12-03T09:55:14Z</time>
      </trkpt>
      <trkpt lat="45.38761" lon="6.63256">
        <ele>2152</ele>
        <time>2017-12-03T09:55:35Z</time>
      </trkpt>
      <trkpt lat="45.38743" lon="6.63275">
        <ele>2153</ele>
        <time>2017-12-03T09:56:37Z</time>
      </trkpt>
      <trkpt lat="45.38746" lon="6.6327">
        <ele>2153</ele>
        <time>2017-12-03T09:57:39Z</time>
      </trkpt>
      <trkpt lat="45.38745" lon="6.63282">
        <ele>2154</ele>
        <time>2017-12-03T09:58:04Z</time>
      </trkpt>
      <trkpt lat="45.38745" lon="6.63277">
        <ele>2152</ele>
        <time>2017-12-03T10:00:09Z</time>
      </trkpt>
      <trkpt lat="45.38746" lon="6.63273">
        <ele>2152</ele>
        <time>2017-12-03T10:02:50Z</time>
      </trkpt>
      <trkpt lat="45.38737" lon="6.63266">
        <ele>2152</ele>
        <time>2017-12-03T10:03:06Z</time>
      </trkpt>
      <trkpt lat="45.38731" lon="6.63256">
        <ele>2150</ele>
        <time>2017-12-03T10:03:21Z</time>
      </trkpt>
      <trkpt lat="45.38715" lon="6.63249">
        <ele>2151</ele>
        <time>2017-12-03T10:03:38Z</time>
      </trkpt>
      <trkpt lat="45.38707" lon="6.63242">
        <ele>2151</ele>
        <time>2017-12-03T10:03:48Z</time>
      </trkpt>
      <trkpt lat="45.38704" lon="6.63237">
        <ele>2151</ele>
        <time>2017-12-03T10:03:54Z</time>
      </trkpt>
      <trkpt lat="45.38699" lon="6.63237">
        <ele>2152</ele>
        <time>2017-12-03T10:04:01Z</time>
      </trkpt>
      <trkpt lat="45.38695" lon="6.63234">
        <ele>2152</ele>
        <time>2017-12-03T10:04:05Z</time>
      </trkpt>
      <trkpt lat="45.38693" lon="6.63227">
        <ele>2152</ele>
        <time>2017-12-03T10:04:10Z</time>
      </trkpt>
      <trkpt lat="45.38691" lon="6.63221">
        <ele>2153</ele>
        <time>2017-12-03T10:04:15Z</time>
      </trkpt>
      <trkpt lat="45.38686" lon="6.63216">
        <ele>2153</ele>
        <time>2017-12-03T10:04:23Z</time>
      </trkpt>
      <trkpt lat="45.38681" lon="6.63216">
        <ele>2155</ele>
        <time>2017-12-03T10:04:32Z</time>
      </trkpt>
      <trkpt lat="45.38676" lon="6.63217">
        <ele>2155</ele>
        <time>2017-12-03T10:04:37Z</time>
      </trkpt>
      <trkpt lat="45.38671" lon="6.63214">
        <ele>2156</ele>
        <time>2017-12-03T10:04:45Z</time>
      </trkpt>
      <trkpt lat="45.38659" lon="6.63218">
        <ele>2158</ele>
        <time>2017-12-03T10:05:04Z</time>
      </trkpt>
      <trkpt lat="45.38632" lon="6.63204">
        <ele>2161</ele>
        <time>2017-12-03T10:05:40Z</time>
      </trkpt>
      <trkpt lat="45.38628" lon="6.632">
        <ele>2161</ele>
        <time>2017-12-03T10:05:46Z</time>
      </trkpt>
      <trkpt lat="45.38618" lon="6.63196">
        <ele>2162</ele>
        <time>2017-12-03T10:05:57Z</time>
      </trkpt>
      <trkpt lat="45.38614" lon="6.63193">
        <ele>2163</ele>
        <time>2017-12-03T10:06:06Z</time>
      </trkpt>
      <trkpt lat="45.38611" lon="6.63188">
        <ele>2164</ele>
        <time>2017-12-03T10:06:15Z</time>
      </trkpt>
      <trkpt lat="45.38602" lon="6.63187">
        <ele>2165</ele>
        <time>2017-12-03T10:06:33Z</time>
      </trkpt>
      <trkpt lat="45.38598" lon="6.6318">
        <ele>2166</ele>
        <time>2017-12-03T10:06:45Z</time>
      </trkpt>
      <trkpt lat="45.38587" lon="6.63181">
        <ele>2168</ele>
        <time>2017-12-03T10:06:55Z</time>
      </trkpt>
      <trkpt lat="45.38584" lon="6.63174">
        <ele>2170</ele>
        <time>2017-12-03T10:07:19Z</time>
      </trkpt>
      <trkpt lat="45.38574" lon="6.6316">
        <ele>2175</ele>
        <time>2017-12-03T10:07:50Z</time>
      </trkpt>
      <trkpt lat="45.38569" lon="6.63157">
        <ele>2177</ele>
        <time>2017-12-03T10:08:01Z</time>
      </trkpt>
      <trkpt lat="45.3856" lon="6.63144">
        <ele>2182</ele>
        <time>2017-12-03T10:08:33Z</time>
      </trkpt>
      <trkpt lat="45.38558" lon="6.63138">
        <ele>2183</ele>
        <time>2017-12-03T10:08:42Z</time>
      </trkpt>
      <trkpt lat="45.38553" lon="6.63134">
        <ele>2185</ele>
        <time>2017-12-03T10:08:58Z</time>
      </trkpt>
      <trkpt lat="45.38547" lon="6.63135">
        <ele>2187</ele>
        <time>2017-12-03T10:09:16Z</time>
      </trkpt>
      <trkpt lat="45.38542" lon="6.63134">
        <ele>2188</ele>
        <time>2017-12-03T10:09:23Z</time>
      </trkpt>
      <trkpt lat="45.38539" lon="6.63129">
        <ele>2189</ele>
        <time>2017-12-03T10:09:29Z</time>
      </trkpt>
      <trkpt lat="45.38536" lon="6.63124">
        <ele>2191</ele>
        <time>2017-12-03T10:09:48Z</time>
      </trkpt>
      <trkpt lat="45.38539" lon="6.63119">
        <ele>2192</ele>
        <time>2017-12-03T10:10:05Z</time>
      </trkpt>
      <trkpt lat="45.38532" lon="6.63106">
        <ele>2194</ele>
        <time>2017-12-03T10:10:18Z</time>
      </trkpt>
      <trkpt lat="45.38523" lon="6.63103">
        <ele>2197</ele>
        <time>2017-12-03T10:10:44Z</time>
      </trkpt>
      <trkpt lat="45.38517" lon="6.631">
        <ele>2199</ele>
        <time>2017-12-03T10:11:01Z</time>
      </trkpt>
      <trkpt lat="45.38509" lon="6.63089">
        <ele>2201</ele>
        <time>2017-12-03T10:11:20Z</time>
      </trkpt>
      <trkpt lat="45.38504" lon="6.63086">
        <ele>2202</ele>
        <time>2017-12-03T10:11:25Z</time>
      </trkpt>
      <trkpt lat="45.385" lon="6.63081">
        <ele>2203</ele>
        <time>2017-12-03T10:11:36Z</time>
      </trkpt>
      <trkpt lat="45.38484" lon="6.63078">
        <ele>2207</ele>
        <time>2017-12-03T10:12:04Z</time>
      </trkpt>
      <trkpt lat="45.38481" lon="6.63074">
        <ele>2207</ele>
        <time>2017-12-03T10:12:09Z</time>
      </trkpt>
      <trkpt lat="45.38476" lon="6.63071">
        <ele>2208</ele>
        <time>2017-12-03T10:12:15Z</time>
      </trkpt>
      <trkpt lat="45.3847" lon="6.63067">
        <ele>2210</ele>
        <time>2017-12-03T10:12:31Z</time>
      </trkpt>
      <trkpt lat="45.38458" lon="6.63055">
        <ele>2212</ele>
        <time>2017-12-03T10:12:47Z</time>
      </trkpt>
      <trkpt lat="45.38453" lon="6.63056">
        <ele>2213</ele>
        <time>2017-12-03T10:12:53Z</time>
      </trkpt>
      <trkpt lat="45.38451" lon="6.6305">
        <ele>2214</ele>
        <time>2017-12-03T10:13:01Z</time>
      </trkpt>
      <trkpt lat="45.38441" lon="6.63043">
        <ele>2215</ele>
        <time>2017-12-03T10:13:16Z</time>
      </trkpt>
      <trkpt lat="45.38438" lon="6.63038">
        <ele>2216</ele>
        <time>2017-12-03T10:13:22Z</time>
      </trkpt>
      <trkpt lat="45.38435" lon="6.63033">
        <ele>2216</ele>
        <time>2017-12-03T10:13:27Z</time>
      </trkpt>
      <trkpt lat="45.38432" lon="6.63028">
        <ele>2217</ele>
        <time>2017-12-03T10:13:39Z</time>
      </trkpt>
      <trkpt lat="45.38427" lon="6.6302">
        <ele>2218</ele>
        <time>2017-12-03T10:14:16Z</time>
      </trkpt>
      <trkpt lat="45.38422" lon="6.63022">
        <ele>2222</ele>
        <time>2017-12-03T10:15:55Z</time>
      </trkpt>
      <trkpt lat="45.38418" lon="6.63019">
        <ele>2227</ele>
        <time>2017-12-03T10:18:49Z</time>
      </trkpt>
      <trkpt lat="45.38411" lon="6.63017">
        <ele>2228</ele>
        <time>2017-12-03T10:20:56Z</time>
      </trkpt>
      <trkpt lat="45.38407" lon="6.63014">
        <ele>2228</ele>
        <time>2017-12-03T10:21:02Z</time>
      </trkpt>
      <trkpt lat="45.3838" lon="6.63025">
        <ele>2226</ele>
        <time>2017-12-03T10:21:34Z</time>
      </trkpt>
      <trkpt lat="45.38374" lon="6.63026">
        <ele>2225</ele>
        <time>2017-12-03T10:21:37Z</time>
      </trkpt>
      <trkpt lat="45.3837" lon="6.63026">
        <ele>2224</ele>
        <time>2017-12-03T10:21:42Z</time>
      </trkpt>
      <trkpt lat="45.38365" lon="6.63027">
        <ele>2223</ele>
        <time>2017-12-03T10:21:45Z</time>
      </trkpt>
      <trkpt lat="45.3834" lon="6.63017">
        <ele>2221</ele>
        <time>2017-12-03T10:22:01Z</time>
      </trkpt>
      <trkpt lat="45.38325" lon="6.63019">
        <ele>2219</ele>
        <time>2017-12-03T10:22:15Z</time>
      </trkpt>
      <trkpt lat="45.38315" lon="6.63015">
        <ele>2217</ele>
        <time>2017-12-03T10:22:24Z</time>
      </trkpt>
      <trkpt lat="45.3831" lon="6.63016">
        <ele>2216</ele>
        <time>2017-12-03T10:22:28Z</time>
      </trkpt>
      <trkpt lat="45.38294" lon="6.63023">
        <ele>2214</ele>
        <time>2017-12-03T10:22:43Z</time>
      </trkpt>
      <trkpt lat="45.38283" lon="6.63019">
        <ele>2212</ele>
        <time>2017-12-03T10:22:52Z</time>
      </trkpt>
      <trkpt lat="45.38278" lon="6.63016">
        <ele>2211</ele>
        <time>2017-12-03T10:22:58Z</time>
      </trkpt>
      <trkpt lat="45.38263" lon="6.63017">
        <ele>2209</ele>
        <time>2017-12-03T10:23:14Z</time>
      </trkpt>
      <trkpt lat="45.38252" lon="6.63015">
        <ele>2207</ele>
        <time>2017-12-03T10:23:25Z</time>
      </trkpt>
      <trkpt lat="45.38222" lon="6.6302">
        <ele>2205</ele>
        <time>2017-12-03T10:23:48Z</time>
      </trkpt>
      <trkpt lat="45.38217" lon="6.63018">
        <ele>2206</ele>
        <time>2017-12-03T10:23:56Z</time>
      </trkpt>
      <trkpt lat="45.38208" lon="6.63012">
        <ele>2207</ele>
        <time>2017-12-03T10:24:10Z</time>
      </trkpt>
      <trkpt lat="45.38186" lon="6.62986">
        <ele>2209</ele>
        <time>2017-12-03T10:24:44Z</time>
      </trkpt>
      <trkpt lat="45.38174" lon="6.62972">
        <ele>2212</ele>
        <time>2017-12-03T10:25:03Z</time>
      </trkpt>
      <trkpt lat="45.38165" lon="6.62962">
        <ele>2215</ele>
        <time>2017-12-03T10:25:32Z</time>
      </trkpt>
      <trkpt lat="45.38142" lon="6.62948">
        <ele>2218</ele>
        <time>2017-12-03T10:25:56Z</time>
      </trkpt>
      <trkpt lat="45.38139" lon="6.62942">
        <ele>2218</ele>
        <time>2017-12-03T10:26:06Z</time>
      </trkpt>
      <trkpt lat="45.38112" lon="6.62921">
        <ele>2222</ele>
        <time>2017-12-03T10:26:41Z</time>
      </trkpt>
      <trkpt lat="45.38095" lon="6.62905">
        <ele>2224</ele>
        <time>2017-12-03T10:27:02Z</time>
      </trkpt>
      <trkpt lat="45.38076" lon="6.62894">
        <ele>2225</ele>
        <time>2017-12-03T10:27:21Z</time>
      </trkpt>
      <trkpt lat="45.38067" lon="6.62892">
        <ele>2227</ele>
        <time>2017-12-03T10:27:36Z</time>
      </trkpt>
      <trkpt lat="45.38063" lon="6.62888">
        <ele>2227</ele>
        <time>2017-12-03T10:27:41Z</time>
      </trkpt>
      <trkpt lat="45.38058" lon="6.62887">
        <ele>2228</ele>
        <time>2017-12-03T10:27:46Z</time>
      </trkpt>
      <trkpt lat="45.38049" lon="6.6288">
        <ele>2229</ele>
        <time>2017-12-03T10:27:57Z</time>
      </trkpt>
      <trkpt lat="45.38034" lon="6.62876">
        <ele>2231</ele>
        <time>2017-12-03T10:28:14Z</time>
      </trkpt>
      <trkpt lat="45.3803" lon="6.62874">
        <ele>2232</ele>
        <time>2017-12-03T10:28:18Z</time>
      </trkpt>
      <trkpt lat="45.3801" lon="6.62873">
        <ele>2237</ele>
        <time>2017-12-03T10:28:44Z</time>
      </trkpt>
      <trkpt lat="45.3799" lon="6.6287">
        <ele>2240</ele>
        <time>2017-12-03T10:29:16Z</time>
      </trkpt>
      <trkpt lat="45.37975" lon="6.62871">
        <ele>2242</ele>
        <time>2017-12-03T10:29:35Z</time>
      </trkpt>
      <trkpt lat="45.37966" lon="6.62867">
        <ele>2243</ele>
        <time>2017-12-03T10:29:48Z</time>
      </trkpt>
      <trkpt lat="45.37935" lon="6.6286">
        <ele>2245</ele>
        <time>2017-12-03T10:30:19Z</time>
      </trkpt>
      <trkpt lat="45.37931" lon="6.62857">
        <ele>2245</ele>
        <time>2017-12-03T10:30:25Z</time>
      </trkpt>
      <trkpt lat="45.37923" lon="6.62851">
        <ele>2246</ele>
        <time>2017-12-03T10:30:38Z</time>
      </trkpt>
      <trkpt lat="45.37919" lon="6.62846">
        <ele>2247</ele>
        <time>2017-12-03T10:30:46Z</time>
      </trkpt>
      <trkpt lat="45.37888" lon="6.62825">
        <ele>2250</ele>
        <time>2017-12-03T10:31:27Z</time>
      </trkpt>
      <trkpt lat="45.37876" lon="6.62814">
        <ele>2252</ele>
        <time>2017-12-03T10:31:44Z</time>
      </trkpt>
      <trkpt lat="45.37871" lon="6.62808">
        <ele>2253</ele>
        <time>2017-12-03T10:31:59Z</time>
      </trkpt>
      <trkpt lat="45.37845" lon="6.62789">
        <ele>2255</ele>
        <time>2017-12-03T10:32:28Z</time>
      </trkpt>
      <trkpt lat="45.37843" lon="6.62782">
        <ele>2256</ele>
        <time>2017-12-03T10:32:37Z</time>
      </trkpt>
      <trkpt lat="45.37835" lon="6.62773">
        <ele>2257</ele>
        <time>2017-12-03T10:32:50Z</time>
      </trkpt>
      <trkpt lat="45.37819" lon="6.62753">
        <ele>2259</ele>
        <time>2017-12-03T10:33:17Z</time>
      </trkpt>
      <trkpt lat="45.37817" lon="6.62747">
        <ele>2259</ele>
        <time>2017-12-03T10:33:25Z</time>
      </trkpt>
      <trkpt lat="45.37796" lon="6.62709">
        <ele>2262</ele>
        <time>2017-12-03T10:33:57Z</time>
      </trkpt>
      <trkpt lat="45.37792" lon="6.62704">
        <ele>2262</ele>
        <time>2017-12-03T10:34:02Z</time>
      </trkpt>
      <trkpt lat="45.37788" lon="6.62701">
        <ele>2263</ele>
        <time>2017-12-03T10:34:10Z</time>
      </trkpt>
      <trkpt lat="45.37775" lon="6.62677">
        <ele>2266</ele>
        <time>2017-12-03T10:34:43Z</time>
      </trkpt>
      <trkpt lat="45.37759" lon="6.62655">
        <ele>2270</ele>
        <time>2017-12-03T10:35:14Z</time>
      </trkpt>
      <trkpt lat="45.37755" lon="6.62649">
        <ele>2270</ele>
        <time>2017-12-03T10:35:20Z</time>
      </trkpt>
      <trkpt lat="45.37747" lon="6.62642">
        <ele>2271</ele>
        <time>2017-12-03T10:35:29Z</time>
      </trkpt>
      <trkpt lat="45.3774" lon="6.62633">
        <ele>2271</ele>
        <time>2017-12-03T10:35:37Z</time>
      </trkpt>
      <trkpt lat="45.37736" lon="6.6263">
        <ele>2272</ele>
        <time>2017-12-03T10:35:45Z</time>
      </trkpt>
      <trkpt lat="45.37728" lon="6.6262">
        <ele>2272</ele>
        <time>2017-12-03T10:35:55Z</time>
      </trkpt>
      <trkpt lat="45.37709" lon="6.62602">
        <ele>2277</ele>
        <time>2017-12-03T10:36:29Z</time>
      </trkpt>
      <trkpt lat="45.37698" lon="6.62597">
        <ele>2278</ele>
        <time>2017-12-03T10:36:44Z</time>
      </trkpt>
      <trkpt lat="45.37689" lon="6.62581">
        <ele>2280</ele>
        <time>2017-12-03T10:37:02Z</time>
      </trkpt>
      <trkpt lat="45.37687" lon="6.62575">
        <ele>2280</ele>
        <time>2017-12-03T10:37:06Z</time>
      </trkpt>
      <trkpt lat="45.37687" lon="6.62567">
        <ele>2281</ele>
        <time>2017-12-03T10:37:13Z</time>
      </trkpt>
      <trkpt lat="45.37684" lon="6.62556">
        <ele>2281</ele>
        <time>2017-12-03T10:37:25Z</time>
      </trkpt>
      <trkpt lat="45.37684" lon="6.62549">
        <ele>2282</ele>
        <time>2017-12-03T10:37:34Z</time>
      </trkpt>
      <trkpt lat="45.37685" lon="6.6254">
        <ele>2282</ele>
        <time>2017-12-03T10:37:44Z</time>
      </trkpt>
      <trkpt lat="45.37681" lon="6.62509">
        <ele>2283</ele>
        <time>2017-12-03T10:38:02Z</time>
      </trkpt>
      <trkpt lat="45.37681" lon="6.62502">
        <ele>2283</ele>
        <time>2017-12-03T10:38:08Z</time>
      </trkpt>
      <trkpt lat="45.37679" lon="6.62469">
        <ele>2285</ele>
        <time>2017-12-03T10:38:41Z</time>
      </trkpt>
      <trkpt lat="45.37679" lon="6.62461">
        <ele>2285</ele>
        <time>2017-12-03T10:38:46Z</time>
      </trkpt>
      <trkpt lat="45.37686" lon="6.62455">
        <ele>2285</ele>
        <time>2017-12-03T10:39:19Z</time>
      </trkpt>
      <trkpt lat="45.37681" lon="6.62455">
        <ele>2286</ele>
        <time>2017-12-03T10:41:00Z</time>
      </trkpt>
      <trkpt lat="45.37682" lon="6.62452">
        <ele>2287</ele>
        <time>2017-12-03T10:45:58Z</time>
      </trkpt>
      <trkpt lat="45.37679" lon="6.62446">
        <ele>2287</ele>
        <time>2017-12-03T10:46:02Z</time>
      </trkpt>
      <trkpt lat="45.37676" lon="6.62439">
        <ele>2286</ele>
        <time>2017-12-03T10:46:06Z</time>
      </trkpt>
      <trkpt lat="45.37664" lon="6.62394">
        <ele>2287</ele>
        <time>2017-12-03T10:46:38Z</time>
      </trkpt>
      <trkpt lat="45.37661" lon="6.62366">
        <ele>2288</ele>
        <time>2017-12-03T10:47:00Z</time>
      </trkpt>
      <trkpt lat="45.37661" lon="6.62359">
        <ele>2289</ele>
        <time>2017-12-03T10:47:07Z</time>
      </trkpt>
      <trkpt lat="45.37659" lon="6.6233">
        <ele>2292</ele>
        <time>2017-12-03T10:47:44Z</time>
      </trkpt>
      <trkpt lat="45.37659" lon="6.62323">
        <ele>2293</ele>
        <time>2017-12-03T10:47:50Z</time>
      </trkpt>
      <trkpt lat="45.37659" lon="6.62316">
        <ele>2293</ele>
        <time>2017-12-03T10:47:56Z</time>
      </trkpt>
      <trkpt lat="45.37657" lon="6.62303">
        <ele>2296</ele>
        <time>2017-12-03T10:48:16Z</time>
      </trkpt>
      <trkpt lat="45.37655" lon="6.62286">
        <ele>2299</ele>
        <time>2017-12-03T10:48:34Z</time>
      </trkpt>
      <trkpt lat="45.37659" lon="6.62262">
        <ele>2302</ele>
        <time>2017-12-03T10:48:57Z</time>
      </trkpt>
      <trkpt lat="45.37658" lon="6.62255">
        <ele>2303</ele>
        <time>2017-12-03T10:49:02Z</time>
      </trkpt>
      <trkpt lat="45.37659" lon="6.62249">
        <ele>2304</ele>
        <time>2017-12-03T10:49:10Z</time>
      </trkpt>
      <trkpt lat="45.37658" lon="6.62242">
        <ele>2305</ele>
        <time>2017-12-03T10:49:22Z</time>
      </trkpt>
      <trkpt lat="45.37659" lon="6.62235">
        <ele>2306</ele>
        <time>2017-12-03T10:49:28Z</time>
      </trkpt>
      <trkpt lat="45.37663" lon="6.62231">
        <ele>2307</ele>
        <time>2017-12-03T10:49:35Z</time>
      </trkpt>
      <trkpt lat="45.37666" lon="6.62226">
        <ele>2307</ele>
        <time>2017-12-03T10:49:42Z</time>
      </trkpt>
      <trkpt lat="45.37669" lon="6.62221">
        <ele>2308</ele>
        <time>2017-12-03T10:49:49Z</time>
      </trkpt>
      <trkpt lat="45.37672" lon="6.62206">
        <ele>2308</ele>
        <time>2017-12-03T10:50:01Z</time>
      </trkpt>
      <trkpt lat="45.37671" lon="6.62199">
        <ele>2308</ele>
        <time>2017-12-03T10:50:06Z</time>
      </trkpt>
      <trkpt lat="45.37674" lon="6.62194">
        <ele>2309</ele>
        <time>2017-12-03T10:50:11Z</time>
      </trkpt>
      <trkpt lat="45.37675" lon="6.62187">
        <ele>2309</ele>
        <time>2017-12-03T10:50:15Z</time>
      </trkpt>
      <trkpt lat="45.37675" lon="6.62175">
        <ele>2309</ele>
        <time>2017-12-03T10:50:29Z</time>
      </trkpt>
      <trkpt lat="45.37677" lon="6.62167">
        <ele>2310</ele>
        <time>2017-12-03T10:50:36Z</time>
      </trkpt>
      <trkpt lat="45.37678" lon="6.62161">
        <ele>2310</ele>
        <time>2017-12-03T10:50:42Z</time>
      </trkpt>
      <trkpt lat="45.37678" lon="6.62147">
        <ele>2310</ele>
        <time>2017-12-03T10:50:54Z</time>
      </trkpt>
      <trkpt lat="45.37678" lon="6.6214">
        <ele>2310</ele>
        <time>2017-12-03T10:51:01Z</time>
      </trkpt>
      <trkpt lat="45.37681" lon="6.62134">
        <ele>2311</ele>
        <time>2017-12-03T10:51:09Z</time>
      </trkpt>
      <trkpt lat="45.37683" lon="6.62119">
        <ele>2312</ele>
        <time>2017-12-03T10:51:19Z</time>
      </trkpt>
      <trkpt lat="45.37681" lon="6.62105">
        <ele>2313</ele>
        <time>2017-12-03T10:51:28Z</time>
      </trkpt>
      <trkpt lat="45.37682" lon="6.62099">
        <ele>2314</ele>
        <time>2017-12-03T10:51:34Z</time>
      </trkpt>
      <trkpt lat="45.3768" lon="6.62085">
        <ele>2315</ele>
        <time>2017-12-03T10:51:42Z</time>
      </trkpt>
      <trkpt lat="45.37681" lon="6.62078">
        <ele>2316</ele>
        <time>2017-12-03T10:51:48Z</time>
      </trkpt>
      <trkpt lat="45.37683" lon="6.62072">
        <ele>2317</ele>
        <time>2017-12-03T10:51:54Z</time>
      </trkpt>
      <trkpt lat="45.37677" lon="6.62056">
        <ele>2318</ele>
        <time>2017-12-03T10:52:17Z</time>
      </trkpt>
      <trkpt lat="45.37677" lon="6.62049">
        <ele>2319</ele>
        <time>2017-12-03T10:52:22Z</time>
      </trkpt>
      <trkpt lat="45.37676" lon="6.62042">
        <ele>2319</ele>
        <time>2017-12-03T10:52:28Z</time>
      </trkpt>
      <trkpt lat="45.37667" lon="6.62018">
        <ele>2322</ele>
        <time>2017-12-03T10:52:52Z</time>
      </trkpt>
      <trkpt lat="45.37665" lon="6.62006">
        <ele>2325</ele>
        <time>2017-12-03T10:53:27Z</time>
      </trkpt>
      <trkpt lat="45.37664" lon="6.61998">
        <ele>2327</ele>
        <time>2017-12-03T10:53:34Z</time>
      </trkpt>
      <trkpt lat="45.37662" lon="6.61982">
        <ele>2330</ele>
        <time>2017-12-03T10:54:02Z</time>
      </trkpt>
      <trkpt lat="45.37667" lon="6.61978">
        <ele>2331</ele>
        <time>2017-12-03T10:54:17Z</time>
      </trkpt>
      <trkpt lat="45.37669" lon="6.61971">
        <ele>2333</ele>
        <time>2017-12-03T10:54:34Z</time>
      </trkpt>
      <trkpt lat="45.37674" lon="6.61963">
        <ele>2335</ele>
        <time>2017-12-03T10:54:58Z</time>
      </trkpt>
      <trkpt lat="45.37679" lon="6.61956">
        <ele>2336</ele>
        <time>2017-12-03T10:55:17Z</time>
      </trkpt>
      <trkpt lat="45.37679" lon="6.61947">
        <ele>2338</ele>
        <time>2017-12-03T10:55:33Z</time>
      </trkpt>
      <trkpt lat="45.37682" lon="6.61941">
        <ele>2339</ele>
        <time>2017-12-03T10:55:51Z</time>
      </trkpt>
      <trkpt lat="45.3769" lon="6.61935">
        <ele>2342</ele>
        <time>2017-12-03T10:56:12Z</time>
      </trkpt>
      <trkpt lat="45.37691" lon="6.61929">
        <ele>2343</ele>
        <time>2017-12-03T10:56:24Z</time>
      </trkpt>
      <trkpt lat="45.3769" lon="6.61921">
        <ele>2346</ele>
        <time>2017-12-03T10:56:50Z</time>
      </trkpt>
      <trkpt lat="45.37689" lon="6.61914">
        <ele>2346</ele>
        <time>2017-12-03T10:56:59Z</time>
      </trkpt>
      <trkpt lat="45.3769" lon="6.61905">
        <ele>2349</ele>
        <time>2017-12-03T10:57:30Z</time>
      </trkpt>
      <trkpt lat="45.37696" lon="6.61893">
        <ele>2352</ele>
        <time>2017-12-03T10:57:46Z</time>
      </trkpt>
      <trkpt lat="45.377" lon="6.61888">
        <ele>2353</ele>
        <time>2017-12-03T10:57:53Z</time>
      </trkpt>
      <trkpt lat="45.377" lon="6.6188">
        <ele>2355</ele>
        <time>2017-12-03T10:58:08Z</time>
      </trkpt>
      <trkpt lat="45.37702" lon="6.61873">
        <ele>2356</ele>
        <time>2017-12-03T10:58:13Z</time>
      </trkpt>
      <trkpt lat="45.37704" lon="6.61868">
        <ele>2358</ele>
        <time>2017-12-03T10:58:31Z</time>
      </trkpt>
      <trkpt lat="45.37707" lon="6.61859">
        <ele>2361</ele>
        <time>2017-12-03T10:58:54Z</time>
      </trkpt>
      <trkpt lat="45.37707" lon="6.61846">
        <ele>2364</ele>
        <time>2017-12-03T10:59:19Z</time>
      </trkpt>
      <trkpt lat="45.3771" lon="6.61841">
        <ele>2366</ele>
        <time>2017-12-03T10:59:29Z</time>
      </trkpt>
      <trkpt lat="45.37711" lon="6.61834">
        <ele>2367</ele>
        <time>2017-12-03T10:59:41Z</time>
      </trkpt>
      <trkpt lat="45.37717" lon="6.61816">
        <ele>2372</ele>
        <time>2017-12-03T11:00:13Z</time>
      </trkpt>
      <trkpt lat="45.37722" lon="6.61796">
        <ele>2378</ele>
        <time>2017-12-03T11:01:12Z</time>
      </trkpt>
      <trkpt lat="45.37723" lon="6.61789">
        <ele>2380</ele>
        <time>2017-12-03T11:01:19Z</time>
      </trkpt>
      <trkpt lat="45.37727" lon="6.6178">
        <ele>2383</ele>
        <time>2017-12-03T11:01:43Z</time>
      </trkpt>
      <trkpt lat="45.3773" lon="6.61758">
        <ele>2387</ele>
        <time>2017-12-03T11:02:16Z</time>
      </trkpt>
      <trkpt lat="45.37734" lon="6.6175">
        <ele>2390</ele>
        <time>2017-12-03T11:02:34Z</time>
      </trkpt>
      <trkpt lat="45.37737" lon="6.61724">
        <ele>2396</ele>
        <time>2017-12-03T11:03:21Z</time>
      </trkpt>
      <trkpt lat="45.37738" lon="6.61718">
        <ele>2396</ele>
        <time>2017-12-03T11:03:28Z</time>
      </trkpt>
      <trkpt lat="45.3774" lon="6.61709">
        <ele>2399</ele>
        <time>2017-12-03T11:03:42Z</time>
      </trkpt>
      <trkpt lat="45.37742" lon="6.61703">
        <ele>2401</ele>
        <time>2017-12-03T11:03:56Z</time>
      </trkpt>
      <trkpt lat="45.37741" lon="6.61689">
        <ele>2404</ele>
        <time>2017-12-03T11:04:22Z</time>
      </trkpt>
      <trkpt lat="45.37741" lon="6.61677">
        <ele>2406</ele>
        <time>2017-12-03T11:04:47Z</time>
      </trkpt>
      <trkpt lat="45.3774" lon="6.61653">
        <ele>2410</ele>
        <time>2017-12-03T11:05:23Z</time>
      </trkpt>
      <trkpt lat="45.3774" lon="6.61646">
        <ele>2412</ele>
        <time>2017-12-03T11:05:45Z</time>
      </trkpt>
      <trkpt lat="45.37737" lon="6.61635">
        <ele>2415</ele>
        <time>2017-12-03T11:05:59Z</time>
      </trkpt>
      <trkpt lat="45.37739" lon="6.61627">
        <ele>2419</ele>
        <time>2017-12-03T11:06:27Z</time>
      </trkpt>
      <trkpt lat="45.37738" lon="6.6162">
        <ele>2419</ele>
        <time>2017-12-03T11:06:32Z</time>
      </trkpt>
      <trkpt lat="45.37739" lon="6.61614">
        <ele>2422</ele>
        <time>2017-12-03T11:06:45Z</time>
      </trkpt>
      <trkpt lat="45.37737" lon="6.61604">
        <ele>2424</ele>
        <time>2017-12-03T11:07:07Z</time>
      </trkpt>
      <trkpt lat="45.37735" lon="6.61595">
        <ele>2428</ele>
        <time>2017-12-03T11:07:22Z</time>
      </trkpt>
      <trkpt lat="45.37737" lon="6.61588">
        <ele>2430</ele>
        <time>2017-12-03T11:07:36Z</time>
      </trkpt>
      <trkpt lat="45.37736" lon="6.61576">
        <ele>2434</ele>
        <time>2017-12-03T11:08:17Z</time>
      </trkpt>
      <trkpt lat="45.37735" lon="6.61561">
        <ele>2438</ele>
        <time>2017-12-03T11:08:32Z</time>
      </trkpt>
      <trkpt lat="45.37736" lon="6.61554">
        <ele>2440</ele>
        <time>2017-12-03T11:08:45Z</time>
      </trkpt>
      <trkpt lat="45.37731" lon="6.61526">
        <ele>2446</ele>
        <time>2017-12-03T11:09:35Z</time>
      </trkpt>
      <trkpt lat="45.37728" lon="6.61514">
        <ele>2447</ele>
        <time>2017-12-03T11:09:48Z</time>
      </trkpt>
      <trkpt lat="45.37723" lon="6.61499">
        <ele>2449</ele>
        <time>2017-12-03T11:10:03Z</time>
      </trkpt>
      <trkpt lat="45.37714" lon="6.61483">
        <ele>2452</ele>
        <time>2017-12-03T11:10:29Z</time>
      </trkpt>
      <trkpt lat="45.37693" lon="6.61458">
        <ele>2458</ele>
        <time>2017-12-03T11:11:11Z</time>
      </trkpt>
      <trkpt lat="45.37676" lon="6.61444">
        <ele>2463</ele>
        <time>2017-12-03T11:11:45Z</time>
      </trkpt>
      <trkpt lat="45.37671" lon="6.61435">
        <ele>2466</ele>
        <time>2017-12-03T11:12:08Z</time>
      </trkpt>
      <trkpt lat="45.37667" lon="6.61429">
        <ele>2468</ele>
        <time>2017-12-03T11:12:21Z</time>
      </trkpt>
      <trkpt lat="45.3766" lon="6.61428">
        <ele>2471</ele>
        <time>2017-12-03T11:12:38Z</time>
      </trkpt>
      <trkpt lat="45.37654" lon="6.61423">
        <ele>2474</ele>
        <time>2017-12-03T11:12:58Z</time>
      </trkpt>
      <trkpt lat="45.37652" lon="6.61429">
        <ele>2475</ele>
        <time>2017-12-03T11:13:22Z</time>
      </trkpt>
      <trkpt lat="45.37645" lon="6.61428">
        <ele>2478</ele>
        <time>2017-12-03T11:13:44Z</time>
      </trkpt>
      <trkpt lat="45.37634" lon="6.61429">
        <ele>2480</ele>
        <time>2017-12-03T11:13:59Z</time>
      </trkpt>
      <trkpt lat="45.37629" lon="6.61425">
        <ele>2482</ele>
        <time>2017-12-03T11:14:18Z</time>
      </trkpt>
      <trkpt lat="45.37624" lon="6.61424">
        <ele>2484</ele>
        <time>2017-12-03T11:14:33Z</time>
      </trkpt>
      <trkpt lat="45.37612" lon="6.61429">
        <ele>2487</ele>
        <time>2017-12-03T11:14:58Z</time>
      </trkpt>
      <trkpt lat="45.37607" lon="6.61425">
        <ele>2492</ele>
        <time>2017-12-03T11:15:24Z</time>
      </trkpt>
      <trkpt lat="45.37606" lon="6.61415">
        <ele>2495</ele>
        <time>2017-12-03T11:15:51Z</time>
      </trkpt>
      <trkpt lat="45.37601" lon="6.61412">
        <ele>2498</ele>
        <time>2017-12-03T11:16:21Z</time>
      </trkpt>
      <trkpt lat="45.37596" lon="6.6141">
        <ele>2503</ele>
        <time>2017-12-03T11:16:53Z</time>
      </trkpt>
      <trkpt lat="45.37594" lon="6.61403">
        <ele>2505</ele>
        <time>2017-12-03T11:17:09Z</time>
      </trkpt>
      <trkpt lat="45.37587" lon="6.614">
        <ele>2508</ele>
        <time>2017-12-03T11:17:34Z</time>
      </trkpt>
      <trkpt lat="45.37581" lon="6.61406">
        <ele>2511</ele>
        <time>2017-12-03T11:17:48Z</time>
      </trkpt>
      <trkpt lat="45.37577" lon="6.61396">
        <ele>2514</ele>
        <time>2017-12-03T11:18:31Z</time>
      </trkpt>
      <trkpt lat="45.37576" lon="6.61388">
        <ele>2519</ele>
        <time>2017-12-03T11:19:03Z</time>
      </trkpt>
      <trkpt lat="45.37571" lon="6.61391">
        <ele>2522</ele>
        <time>2017-12-03T11:19:51Z</time>
      </trkpt>
      <trkpt lat="45.37567" lon="6.61384">
        <ele>2526</ele>
        <time>2017-12-03T11:20:11Z</time>
      </trkpt>
      <trkpt lat="45.3756" lon="6.61391">
        <ele>2530</ele>
        <time>2017-12-03T11:20:48Z</time>
      </trkpt>
      <trkpt lat="45.37555" lon="6.61396">
        <ele>2534</ele>
        <time>2017-12-03T11:21:10Z</time>
      </trkpt>
      <trkpt lat="45.37551" lon="6.61392">
        <ele>2535</ele>
        <time>2017-12-03T11:21:19Z</time>
      </trkpt>
      <trkpt lat="45.37546" lon="6.61382">
        <ele>2538</ele>
        <time>2017-12-03T11:21:51Z</time>
      </trkpt>
      <trkpt lat="45.37541" lon="6.61387">
        <ele>2543</ele>
        <time>2017-12-03T11:22:21Z</time>
      </trkpt>
      <trkpt lat="45.37533" lon="6.61387">
        <ele>2545</ele>
        <time>2017-12-03T11:22:34Z</time>
      </trkpt>
      <trkpt lat="45.37526" lon="6.61392">
        <ele>2547</ele>
        <time>2017-12-03T11:22:48Z</time>
      </trkpt>
      <trkpt lat="45.37523" lon="6.6138">
        <ele>2552</ele>
        <time>2017-12-03T11:23:22Z</time>
      </trkpt>
      <trkpt lat="45.3752" lon="6.61372">
        <ele>2554</ele>
        <time>2017-12-03T11:23:34Z</time>
      </trkpt>
      <trkpt lat="45.37507" lon="6.61375">
        <ele>2560</ele>
        <time>2017-12-03T11:24:18Z</time>
      </trkpt>
      <trkpt lat="45.37504" lon="6.61371">
        <ele>2561</ele>
        <time>2017-12-03T11:24:37Z</time>
      </trkpt>
      <trkpt lat="45.37498" lon="6.61355">
        <ele>2567</ele>
        <time>2017-12-03T11:25:17Z</time>
      </trkpt>
      <trkpt lat="45.37496" lon="6.61349">
        <ele>2568</ele>
        <time>2017-12-03T11:25:23Z</time>
      </trkpt>
      <trkpt lat="45.37492" lon="6.61344">
        <ele>2570</ele>
        <time>2017-12-03T11:25:37Z</time>
      </trkpt>
      <trkpt lat="45.37489" lon="6.6134">
        <ele>2572</ele>
        <time>2017-12-03T11:25:58Z</time>
      </trkpt>
      <trkpt lat="45.37484" lon="6.61338">
        <ele>2574</ele>
        <time>2017-12-03T11:26:12Z</time>
      </trkpt>
      <trkpt lat="45.37479" lon="6.6133">
        <ele>2578</ele>
        <time>2017-12-03T11:26:38Z</time>
      </trkpt>
      <trkpt lat="45.37474" lon="6.61323">
        <ele>2581</ele>
        <time>2017-12-03T11:26:53Z</time>
      </trkpt>
      <trkpt lat="45.37469" lon="6.61322">
        <ele>2584</ele>
        <time>2017-12-03T11:27:11Z</time>
      </trkpt>
      <trkpt lat="45.37464" lon="6.61323">
        <ele>2584</ele>
        <time>2017-12-03T11:31:35Z</time>
      </trkpt>
      <trkpt lat="45.37454" lon="6.61322">
        <ele>2589</ele>
        <time>2017-12-03T11:32:10Z</time>
      </trkpt>
      <trkpt lat="45.37449" lon="6.6131">
        <ele>2592</ele>
        <time>2017-12-03T11:32:36Z</time>
      </trkpt>
      <trkpt lat="45.37443" lon="6.61306">
        <ele>2594</ele>
        <time>2017-12-03T11:32:55Z</time>
      </trkpt>
      <trkpt lat="45.37438" lon="6.61307">
        <ele>2595</ele>
        <time>2017-12-03T11:33:19Z</time>
      </trkpt>
      <trkpt lat="45.37434" lon="6.61311">
        <ele>2597</ele>
        <time>2017-12-03T11:33:45Z</time>
      </trkpt>
      <trkpt lat="45.37428" lon="6.61312">
        <ele>2598</ele>
        <time>2017-12-03T11:34:00Z</time>
      </trkpt>
      <trkpt lat="45.37423" lon="6.61315">
        <ele>2599</ele>
        <time>2017-12-03T11:34:06Z</time>
      </trkpt>
      <trkpt lat="45.37415" lon="6.61317">
        <ele>2600</ele>
        <time>2017-12-03T11:34:20Z</time>
      </trkpt>
      <trkpt lat="45.3741" lon="6.6131">
        <ele>2603</ele>
        <time>2017-12-03T11:34:58Z</time>
      </trkpt>
      <trkpt lat="45.37409" lon="6.61304">
        <ele>2604</ele>
        <time>2017-12-03T11:35:14Z</time>
      </trkpt>
      <trkpt lat="45.37404" lon="6.61303">
        <ele>2607</ele>
        <time>2017-12-03T11:35:48Z</time>
      </trkpt>
      <trkpt lat="45.37393" lon="6.61306">
        <ele>2611</ele>
        <time>2017-12-03T11:36:04Z</time>
      </trkpt>
      <trkpt lat="45.3739" lon="6.61301">
        <ele>2613</ele>
        <time>2017-12-03T11:36:17Z</time>
      </trkpt>
      <trkpt lat="45.37386" lon="6.61284">
        <ele>2616</ele>
        <time>2017-12-03T11:36:58Z</time>
      </trkpt>
      <trkpt lat="45.37377" lon="6.61288">
        <ele>2619</ele>
        <time>2017-12-03T11:37:44Z</time>
      </trkpt>
      <trkpt lat="45.37373" lon="6.61285">
        <ele>2622</ele>
        <time>2017-12-03T11:37:58Z</time>
      </trkpt>
      <trkpt lat="45.3737" lon="6.61277">
        <ele>2624</ele>
        <time>2017-12-03T11:38:30Z</time>
      </trkpt>
      <trkpt lat="45.37369" lon="6.6127">
        <ele>2625</ele>
        <time>2017-12-03T11:38:45Z</time>
      </trkpt>
      <trkpt lat="45.37371" lon="6.61263">
        <ele>2625</ele>
        <time>2017-12-03T11:38:59Z</time>
      </trkpt>
      <trkpt lat="45.37359" lon="6.61262">
        <ele>2631</ele>
        <time>2017-12-03T11:39:44Z</time>
      </trkpt>
      <trkpt lat="45.37355" lon="6.61259">
        <ele>2633</ele>
        <time>2017-12-03T11:40:03Z</time>
      </trkpt>
      <trkpt lat="45.37353" lon="6.61253">
        <ele>2634</ele>
        <time>2017-12-03T11:40:15Z</time>
      </trkpt>
      <trkpt lat="45.37348" lon="6.61253">
        <ele>2637</ele>
        <time>2017-12-03T11:40:53Z</time>
      </trkpt>
      <trkpt lat="45.37342" lon="6.61254">
        <ele>2638</ele>
        <time>2017-12-03T11:40:59Z</time>
      </trkpt>
      <trkpt lat="45.3733" lon="6.61252">
        <ele>2644</ele>
        <time>2017-12-03T11:41:32Z</time>
      </trkpt>
      <trkpt lat="45.37323" lon="6.61249">
        <ele>2645</ele>
        <time>2017-12-03T11:41:44Z</time>
      </trkpt>
      <trkpt lat="45.37319" lon="6.61241">
        <ele>2649</ele>
        <time>2017-12-03T11:42:16Z</time>
      </trkpt>
      <trkpt lat="45.37317" lon="6.61232">
        <ele>2652</ele>
        <time>2017-12-03T11:42:33Z</time>
      </trkpt>
      <trkpt lat="45.3731" lon="6.61215">
        <ele>2655</ele>
        <time>2017-12-03T11:43:04Z</time>
      </trkpt>
      <trkpt lat="45.37308" lon="6.61208">
        <ele>2656</ele>
        <time>2017-12-03T11:43:18Z</time>
      </trkpt>
      <trkpt lat="45.37301" lon="6.61213">
        <ele>2657</ele>
        <time>2017-12-03T11:44:57Z</time>
      </trkpt>
      <trkpt lat="45.37294" lon="6.61213">
        <ele>2661</ele>
        <time>2017-12-03T11:45:15Z</time>
      </trkpt>
      <trkpt lat="45.37287" lon="6.61207">
        <ele>2667</ele>
        <time>2017-12-03T11:45:47Z</time>
      </trkpt>
      <trkpt lat="45.37284" lon="6.61202">
        <ele>2667</ele>
        <time>2017-12-03T11:45:51Z</time>
      </trkpt>
      <trkpt lat="45.37281" lon="6.61196">
        <ele>2669</ele>
        <time>2017-12-03T11:45:56Z</time>
      </trkpt>
      <trkpt lat="45.37274" lon="6.61194">
        <ele>2673</ele>
        <time>2017-12-03T11:46:26Z</time>
      </trkpt>
      <trkpt lat="45.37269" lon="6.61192">
        <ele>2676</ele>
        <time>2017-12-03T11:46:45Z</time>
      </trkpt>
      <trkpt lat="45.37256" lon="6.61193">
        <ele>2681</ele>
        <time>2017-12-03T11:47:16Z</time>
      </trkpt>
      <trkpt lat="45.37252" lon="6.61192">
        <ele>2682</ele>
        <time>2017-12-03T11:47:36Z</time>
      </trkpt>
      <trkpt lat="45.37246" lon="6.61192">
        <ele>2682</ele>
        <time>2017-12-03T11:48:14Z</time>
      </trkpt>
      <trkpt lat="45.37228" lon="6.61187">
        <ele>2683</ele>
        <time>2017-12-03T11:48:36Z</time>
      </trkpt>
      <trkpt lat="45.37218" lon="6.61183">
        <ele>2684</ele>
        <time>2017-12-03T11:48:51Z</time>
      </trkpt>
      <trkpt lat="45.37218" lon="6.61176">
        <ele>2685</ele>
        <time>2017-12-03T11:51:52Z</time>
      </trkpt>
      <trkpt lat="45.37213" lon="6.61176">
        <ele>2685</ele>
        <time>2017-12-03T11:53:40Z</time>
      </trkpt>
      <trkpt lat="45.3719" lon="6.61164">
        <ele>2687</ele>
        <time>2017-12-03T11:54:11Z</time>
      </trkpt>
      <trkpt lat="45.37176" lon="6.61166">
        <ele>2687</ele>
        <time>2017-12-03T11:54:34Z</time>
      </trkpt>
      <trkpt lat="45.37158" lon="6.61167">
        <ele>2686</ele>
        <time>2017-12-03T11:55:14Z</time>
      </trkpt>
      <trkpt lat="45.37153" lon="6.61166">
        <ele>2686</ele>
        <time>2017-12-03T11:55:19Z</time>
      </trkpt>
      <trkpt lat="45.37149" lon="6.61163">
        <ele>2687</ele>
        <time>2017-12-03T11:55:29Z</time>
      </trkpt>
      <trkpt lat="45.37143" lon="6.61163">
        <ele>2688</ele>
        <time>2017-12-03T11:55:55Z</time>
      </trkpt>
      <trkpt lat="45.37132" lon="6.61159">
        <ele>2691</ele>
        <time>2017-12-03T11:56:26Z</time>
      </trkpt>
      <trkpt lat="45.37126" lon="6.61154">
        <ele>2691</ele>
        <time>2017-12-03T11:56:41Z</time>
      </trkpt>
      <trkpt lat="45.37121" lon="6.61153">
        <ele>2690</ele>
        <time>2017-12-03T11:56:50Z</time>
      </trkpt>
      <trkpt lat="45.37114" lon="6.61154">
        <ele>2690</ele>
        <time>2017-12-03T11:57:03Z</time>
      </trkpt>
      <trkpt lat="45.37102" lon="6.61152">
        <ele>2691</ele>
        <time>2017-12-03T11:57:28Z</time>
      </trkpt>
      <trkpt lat="45.37095" lon="6.61152">
        <ele>2691</ele>
        <time>2017-12-03T11:57:43Z</time>
      </trkpt>
      <trkpt lat="45.3709" lon="6.61151">
        <ele>2691</ele>
        <time>2017-12-03T11:57:48Z</time>
      </trkpt>
      <trkpt lat="45.37086" lon="6.61148">
        <ele>2691</ele>
        <time>2017-12-03T11:57:54Z</time>
      </trkpt>
      <trkpt lat="45.37081" lon="6.61146">
        <ele>2691</ele>
        <time>2017-12-03T11:58:01Z</time>
      </trkpt>
      <trkpt lat="45.37071" lon="6.61145">
        <ele>2691</ele>
        <time>2017-12-03T11:58:13Z</time>
      </trkpt>
      <trkpt lat="45.37067" lon="6.61143">
        <ele>2692</ele>
        <time>2017-12-03T11:58:19Z</time>
      </trkpt>
      <trkpt lat="45.37062" lon="6.61144">
        <ele>2693</ele>
        <time>2017-12-03T11:58:32Z</time>
      </trkpt>
      <trkpt lat="45.37057" lon="6.61142">
        <ele>2694</ele>
        <time>2017-12-03T11:58:39Z</time>
      </trkpt>
      <trkpt lat="45.37058" lon="6.61133">
        <ele>2695</ele>
        <time>2017-12-03T11:59:14Z</time>
      </trkpt>
      <trkpt lat="45.37053" lon="6.61128">
        <ele>2696</ele>
        <time>2017-12-03T11:59:30Z</time>
      </trkpt>
      <trkpt lat="45.37049" lon="6.61124">
        <ele>2696</ele>
        <time>2017-12-03T11:59:43Z</time>
      </trkpt>
      <trkpt lat="45.37045" lon="6.6112">
        <ele>2697</ele>
        <time>2017-12-03T12:01:01Z</time>
      </trkpt>
      <trkpt lat="45.37045" lon="6.61118">
        <ele>2701</ele>
        <time>2017-12-03T12:04:45Z</time>
      </trkpt>
      <trkpt lat="45.37052" lon="6.61121">
        <ele>2701</ele>
        <time>2017-12-03T12:04:53Z</time>
      </trkpt>
      <trkpt lat="45.37052" lon="6.61121">
        <ele>2705</ele>
        <time>2017-12-03T12:05:37Z</time>
      </trkpt>
      <trkpt lat="45.37044" lon="6.61121">
        <ele>2704</ele>
        <time>2017-12-03T12:06:33Z</time>
      </trkpt>
      <trkpt lat="45.37039" lon="6.61118">
        <ele>2702</ele>
        <time>2017-12-03T12:06:49Z</time>
      </trkpt>
      <trkpt lat="45.37039" lon="6.61118">
        <ele>2704</ele>
        <time>2017-12-03T12:08:20Z</time>
      </trkpt>
      <trkpt lat="45.37044" lon="6.61118">
        <ele>2703</ele>
        <time>2017-12-03T12:13:58Z</time>
      </trkpt>
      <trkpt lat="45.37051" lon="6.6112">
        <ele>2703</ele>
        <time>2017-12-03T12:18:21Z</time>
      </trkpt>
      <trkpt lat="45.37055" lon="6.61123">
        <ele>2701</ele>
        <time>2017-12-03T12:18:26Z</time>
      </trkpt>
      <trkpt lat="45.37058" lon="6.61131">
        <ele>2696</ele>
        <time>2017-12-03T12:19:08Z</time>
      </trkpt>
      <trkpt lat="45.37059" lon="6.61137">
        <ele>2694</ele>
        <time>2017-12-03T12:19:42Z</time>
      </trkpt>
      <trkpt lat="45.37055" lon="6.61142">
        <ele>2692</ele>
        <time>2017-12-03T12:20:34Z</time>
      </trkpt>
      <trkpt lat="45.37049" lon="6.61148">
        <ele>2691</ele>
        <time>2017-12-03T12:21:06Z</time>
      </trkpt>
      <trkpt lat="45.37046" lon="6.61154">
        <ele>2690</ele>
        <time>2017-12-03T12:21:15Z</time>
      </trkpt>
      <trkpt lat="45.37041" lon="6.61148">
        <ele>2691</ele>
        <time>2017-12-03T12:22:41Z</time>
      </trkpt>
      <trkpt lat="45.37042" lon="6.61147">
        <ele>2694</ele>
        <time>2017-12-03T12:24:49Z</time>
      </trkpt>
      <trkpt lat="45.37044" lon="6.61146">
        <ele>2692</ele>
        <time>2017-12-03T12:54:49Z</time>
      </trkpt>
      <trkpt lat="45.37047" lon="6.61151">
        <ele>2691</ele>
        <time>2017-12-03T12:55:29Z</time>
      </trkpt>
      <trkpt lat="45.37051" lon="6.61147">
        <ele>2691</ele>
        <time>2017-12-03T12:55:35Z</time>
      </trkpt>
      <trkpt lat="45.37054" lon="6.61151">
        <ele>2690</ele>
        <time>2017-12-03T12:55:44Z</time>
      </trkpt>
      <trkpt lat="45.37059" lon="6.61155">
        <ele>2689</ele>
        <time>2017-12-03T12:56:02Z</time>
      </trkpt>
      <trkpt lat="45.3707" lon="6.61154">
        <ele>2688</ele>
        <time>2017-12-03T12:56:09Z</time>
      </trkpt>
      <trkpt lat="45.37074" lon="6.6115">
        <ele>2689</ele>
        <time>2017-12-03T12:56:18Z</time>
      </trkpt>
      <trkpt lat="45.37088" lon="6.61146">
        <ele>2688</ele>
        <time>2017-12-03T12:56:55Z</time>
      </trkpt>
      <trkpt lat="45.37103" lon="6.61146">
        <ele>2688</ele>
        <time>2017-12-03T12:57:33Z</time>
      </trkpt>
      <trkpt lat="45.3711" lon="6.61148">
        <ele>2688</ele>
        <time>2017-12-03T12:57:45Z</time>
      </trkpt>
      <trkpt lat="45.37115" lon="6.61149">
        <ele>2688</ele>
        <time>2017-12-03T12:57:48Z</time>
      </trkpt>
      <trkpt lat="45.3712" lon="6.61149">
        <ele>2688</ele>
        <time>2017-12-03T12:57:56Z</time>
      </trkpt>
      <trkpt lat="45.37125" lon="6.61151">
        <ele>2688</ele>
        <time>2017-12-03T12:58:04Z</time>
      </trkpt>
      <trkpt lat="45.37133" lon="6.61154">
        <ele>2688</ele>
        <time>2017-12-03T12:58:17Z</time>
      </trkpt>
      <trkpt lat="45.3714" lon="6.61157">
        <ele>2686</ele>
        <time>2017-12-03T12:58:35Z</time>
      </trkpt>
      <trkpt lat="45.37144" lon="6.61161">
        <ele>2685</ele>
        <time>2017-12-03T12:58:43Z</time>
      </trkpt>
      <trkpt lat="45.37149" lon="6.61163">
        <ele>2685</ele>
        <time>2017-12-03T12:58:53Z</time>
      </trkpt>
      <trkpt lat="45.37158" lon="6.61163">
        <ele>2685</ele>
        <time>2017-12-03T12:59:06Z</time>
      </trkpt>
      <trkpt lat="45.37168" lon="6.61166">
        <ele>2686</ele>
        <time>2017-12-03T12:59:13Z</time>
      </trkpt>
      <trkpt lat="45.37173" lon="6.61164">
        <ele>2687</ele>
        <time>2017-12-03T12:59:21Z</time>
      </trkpt>
      <trkpt lat="45.37178" lon="6.61165">
        <ele>2687</ele>
        <time>2017-12-03T12:59:28Z</time>
      </trkpt>
      <trkpt lat="45.37182" lon="6.61161">
        <ele>2687</ele>
        <time>2017-12-03T12:59:40Z</time>
      </trkpt>
      <trkpt lat="45.37189" lon="6.61166">
        <ele>2688</ele>
        <time>2017-12-03T13:00:02Z</time>
      </trkpt>
      <trkpt lat="45.37205" lon="6.61172">
        <ele>2688</ele>
        <time>2017-12-03T13:00:15Z</time>
      </trkpt>
      <trkpt lat="45.37233" lon="6.61191">
        <ele>2686</ele>
        <time>2017-12-03T13:00:39Z</time>
      </trkpt>
      <trkpt lat="45.37236" lon="6.61197">
        <ele>2685</ele>
        <time>2017-12-03T13:00:45Z</time>
      </trkpt>
      <trkpt lat="45.37239" lon="6.61202">
        <ele>2685</ele>
        <time>2017-12-03T13:00:52Z</time>
      </trkpt>
      <trkpt lat="45.37243" lon="6.61206">
        <ele>2686</ele>
        <time>2017-12-03T13:04:17Z</time>
      </trkpt>
      <trkpt lat="45.37246" lon="6.61196">
        <ele>2687</ele>
        <time>2017-12-03T13:12:25Z</time>
      </trkpt>
      <trkpt lat="45.37251" lon="6.61195">
        <ele>2687</ele>
        <time>2017-12-03T13:17:08Z</time>
      </trkpt>
      <trkpt lat="45.37265" lon="6.61195">
        <ele>2685</ele>
        <time>2017-12-03T13:17:12Z</time>
      </trkpt>
      <trkpt lat="45.37272" lon="6.61199">
        <ele>2684</ele>
        <time>2017-12-03T13:17:14Z</time>
      </trkpt>
      <trkpt lat="45.37276" lon="6.61207">
        <ele>2682</ele>
        <time>2017-12-03T13:17:16Z</time>
      </trkpt>
      <trkpt lat="45.37282" lon="6.61207">
        <ele>2680</ele>
        <time>2017-12-03T13:17:19Z</time>
      </trkpt>
      <trkpt lat="45.37287" lon="6.61209">
        <ele>2678</ele>
        <time>2017-12-03T13:17:21Z</time>
      </trkpt>
      <trkpt lat="45.37292" lon="6.61214">
        <ele>2676</ele>
        <time>2017-12-03T13:17:24Z</time>
      </trkpt>
      <trkpt lat="45.37296" lon="6.6122">
        <ele>2673</ele>
        <time>2017-12-03T13:17:27Z</time>
      </trkpt>
      <trkpt lat="45.373" lon="6.61227">
        <ele>2671</ele>
        <time>2017-12-03T13:17:30Z</time>
      </trkpt>
      <trkpt lat="45.37301" lon="6.61234">
        <ele>2668</ele>
        <time>2017-12-03T13:17:33Z</time>
      </trkpt>
      <trkpt lat="45.37305" lon="6.61241">
        <ele>2665</ele>
        <time>2017-12-03T13:17:35Z</time>
      </trkpt>
      <trkpt lat="45.37326" lon="6.61248">
        <ele>2657</ele>
        <time>2017-12-03T13:17:40Z</time>
      </trkpt>
      <trkpt lat="45.37337" lon="6.6126">
        <ele>2652</ele>
        <time>2017-12-03T13:17:45Z</time>
      </trkpt>
      <trkpt lat="45.37334" lon="6.61265">
        <ele>2651</ele>
        <time>2017-12-03T13:18:10Z</time>
      </trkpt>
      <trkpt lat="45.37335" lon="6.61277">
        <ele>2649</ele>
        <time>2017-12-03T13:20:49Z</time>
      </trkpt>
      <trkpt lat="45.37339" lon="6.61285">
        <ele>2647</ele>
        <time>2017-12-03T13:20:51Z</time>
      </trkpt>
      <trkpt lat="45.37371" lon="6.61301">
        <ele>2630</ele>
        <time>2017-12-03T13:21:03Z</time>
      </trkpt>
      <trkpt lat="45.37375" lon="6.61308">
        <ele>2628</ele>
        <time>2017-12-03T13:21:05Z</time>
      </trkpt>
      <trkpt lat="45.3738" lon="6.61306">
        <ele>2623</ele>
        <time>2017-12-03T13:21:10Z</time>
      </trkpt>
      <trkpt lat="45.37386" lon="6.61313">
        <ele>2620</ele>
        <time>2017-12-03T13:22:02Z</time>
      </trkpt>
      <trkpt lat="45.37394" lon="6.61316">
        <ele>2619</ele>
        <time>2017-12-03T13:22:03Z</time>
      </trkpt>
      <trkpt lat="45.37409" lon="6.61328">
        <ele>2613</ele>
        <time>2017-12-03T13:22:06Z</time>
      </trkpt>
      <trkpt lat="45.37417" lon="6.61329">
        <ele>2610</ele>
        <time>2017-12-03T13:22:08Z</time>
      </trkpt>
      <trkpt lat="45.37429" lon="6.61326">
        <ele>2605</ele>
        <time>2017-12-03T13:22:11Z</time>
      </trkpt>
      <trkpt lat="45.37454" lon="6.6134">
        <ele>2596</ele>
        <time>2017-12-03T13:22:16Z</time>
      </trkpt>
      <trkpt lat="45.37457" lon="6.61343">
        <ele>2588</ele>
        <time>2017-12-03T13:22:52Z</time>
      </trkpt>
      <trkpt lat="45.37461" lon="6.61352">
        <ele>2587</ele>
        <time>2017-12-03T13:24:00Z</time>
      </trkpt>
      <trkpt lat="45.37481" lon="6.61353">
        <ele>2583</ele>
        <time>2017-12-03T13:24:04Z</time>
      </trkpt>
      <trkpt lat="45.3751" lon="6.61363">
        <ele>2575</ele>
        <time>2017-12-03T13:24:09Z</time>
      </trkpt>
      <trkpt lat="45.37513" lon="6.61364">
        <ele>2572</ele>
        <time>2017-12-03T13:24:12Z</time>
      </trkpt>
      <trkpt lat="45.37519" lon="6.6137">
        <ele>2567</ele>
        <time>2017-12-03T13:24:16Z</time>
      </trkpt>
      <trkpt lat="45.37525" lon="6.61371">
        <ele>2563</ele>
        <time>2017-12-03T13:24:19Z</time>
      </trkpt>
      <trkpt lat="45.37534" lon="6.61376">
        <ele>2557</ele>
        <time>2017-12-03T13:24:24Z</time>
      </trkpt>
      <trkpt lat="45.37538" lon="6.6138">
        <ele>2554</ele>
        <time>2017-12-03T13:24:26Z</time>
      </trkpt>
      <trkpt lat="45.37543" lon="6.61384">
        <ele>2550</ele>
        <time>2017-12-03T13:24:34Z</time>
      </trkpt>
      <trkpt lat="45.3755" lon="6.61382">
        <ele>2547</ele>
        <time>2017-12-03T13:25:58Z</time>
      </trkpt>
      <trkpt lat="45.37563" lon="6.61384">
        <ele>2545</ele>
        <time>2017-12-03T13:26:01Z</time>
      </trkpt>
      <trkpt lat="45.37573" lon="6.61389">
        <ele>2539</ele>
        <time>2017-12-03T13:26:06Z</time>
      </trkpt>
      <trkpt lat="45.37579" lon="6.61389">
        <ele>2534</ele>
        <time>2017-12-03T13:26:09Z</time>
      </trkpt>
      <trkpt lat="45.37585" lon="6.61393">
        <ele>2529</ele>
        <time>2017-12-03T13:26:12Z</time>
      </trkpt>
      <trkpt lat="45.37585" lon="6.61402">
        <ele>2525</ele>
        <time>2017-12-03T13:26:14Z</time>
      </trkpt>
      <trkpt lat="45.37591" lon="6.61399">
        <ele>2520</ele>
        <time>2017-12-03T13:26:17Z</time>
      </trkpt>
      <trkpt lat="45.37601" lon="6.61393">
        <ele>2516</ele>
        <time>2017-12-03T13:26:20Z</time>
      </trkpt>
      <trkpt lat="45.37609" lon="6.61393">
        <ele>2513</ele>
        <time>2017-12-03T13:26:22Z</time>
      </trkpt>
      <trkpt lat="45.37614" lon="6.61399">
        <ele>2509</ele>
        <time>2017-12-03T13:26:24Z</time>
      </trkpt>
      <trkpt lat="45.37624" lon="6.61407">
        <ele>2504</ele>
        <time>2017-12-03T13:26:27Z</time>
      </trkpt>
      <trkpt lat="45.37629" lon="6.61412">
        <ele>2502</ele>
        <time>2017-12-03T13:26:29Z</time>
      </trkpt>
      <trkpt lat="45.3763" lon="6.61419">
        <ele>2494</ele>
        <time>2017-12-03T13:26:57Z</time>
      </trkpt>
      <trkpt lat="45.37629" lon="6.61426">
        <ele>2493</ele>
        <time>2017-12-03T13:28:16Z</time>
      </trkpt>
      <trkpt lat="45.37632" lon="6.61432">
        <ele>2493</ele>
        <time>2017-12-03T13:28:23Z</time>
      </trkpt>
      <trkpt lat="45.37653" lon="6.61447">
        <ele>2488</ele>
        <time>2017-12-03T13:28:29Z</time>
      </trkpt>
      <trkpt lat="45.37659" lon="6.61447">
        <ele>2486</ele>
        <time>2017-12-03T13:28:32Z</time>
      </trkpt>
      <trkpt lat="45.37668" lon="6.61444">
        <ele>2483</ele>
        <time>2017-12-03T13:28:36Z</time>
      </trkpt>
      <trkpt lat="45.3771" lon="6.61474">
        <ele>2468</ele>
        <time>2017-12-03T13:28:46Z</time>
      </trkpt>
      <trkpt lat="45.37726" lon="6.61489">
        <ele>2464</ele>
        <time>2017-12-03T13:28:50Z</time>
      </trkpt>
      <trkpt lat="45.37759" lon="6.61514">
        <ele>2458</ele>
        <time>2017-12-03T13:29:01Z</time>
      </trkpt>
      <trkpt lat="45.37767" lon="6.61528">
        <ele>2456</ele>
        <time>2017-12-03T13:29:13Z</time>
      </trkpt>
      <trkpt lat="45.37775" lon="6.61535">
        <ele>2455</ele>
        <time>2017-12-03T13:29:20Z</time>
      </trkpt>
      <trkpt lat="45.37779" lon="6.61541">
        <ele>2455</ele>
        <time>2017-12-03T13:29:23Z</time>
      </trkpt>
      <trkpt lat="45.3779" lon="6.61549">
        <ele>2453</ele>
        <time>2017-12-03T13:29:31Z</time>
      </trkpt>
      <trkpt lat="45.37788" lon="6.61555">
        <ele>2452</ele>
        <time>2017-12-03T13:29:41Z</time>
      </trkpt>
      <trkpt lat="45.37785" lon="6.61562">
        <ele>2449</ele>
        <time>2017-12-03T13:31:22Z</time>
      </trkpt>
      <trkpt lat="45.37778" lon="6.6157">
        <ele>2448</ele>
        <time>2017-12-03T13:31:41Z</time>
      </trkpt>
      <trkpt lat="45.37778" lon="6.61577">
        <ele>2446</ele>
        <time>2017-12-03T13:31:43Z</time>
      </trkpt>
      <trkpt lat="45.37778" lon="6.61585">
        <ele>2445</ele>
        <time>2017-12-03T13:31:45Z</time>
      </trkpt>
      <trkpt lat="45.37774" lon="6.61591">
        <ele>2443</ele>
        <time>2017-12-03T13:31:47Z</time>
      </trkpt>
      <trkpt lat="45.37773" lon="6.61614">
        <ele>2439</ele>
        <time>2017-12-03T13:31:51Z</time>
      </trkpt>
      <trkpt lat="45.37766" lon="6.61621">
        <ele>2437</ele>
        <time>2017-12-03T13:31:53Z</time>
      </trkpt>
      <trkpt lat="45.37765" lon="6.61629">
        <ele>2434</ele>
        <time>2017-12-03T13:31:55Z</time>
      </trkpt>
      <trkpt lat="45.37767" lon="6.6164">
        <ele>2433</ele>
        <time>2017-12-03T13:31:56Z</time>
      </trkpt>
      <trkpt lat="45.37752" lon="6.61648">
        <ele>2430</ele>
        <time>2017-12-03T13:32:00Z</time>
      </trkpt>
      <trkpt lat="45.37749" lon="6.61658">
        <ele>2428</ele>
        <time>2017-12-03T13:32:02Z</time>
      </trkpt>
      <trkpt lat="45.3775" lon="6.6168">
        <ele>2424</ele>
        <time>2017-12-03T13:32:06Z</time>
      </trkpt>
      <trkpt lat="45.37754" lon="6.6169">
        <ele>2422</ele>
        <time>2017-12-03T13:32:08Z</time>
      </trkpt>
      <trkpt lat="45.37748" lon="6.61698">
        <ele>2420</ele>
        <time>2017-12-03T13:32:10Z</time>
      </trkpt>
      <trkpt lat="45.37747" lon="6.61706">
        <ele>2418</ele>
        <time>2017-12-03T13:32:12Z</time>
      </trkpt>
      <trkpt lat="45.37738" lon="6.61727">
        <ele>2415</ele>
        <time>2017-12-03T13:32:15Z</time>
      </trkpt>
      <trkpt lat="45.37741" lon="6.61739">
        <ele>2413</ele>
        <time>2017-12-03T13:32:17Z</time>
      </trkpt>
      <trkpt lat="45.37737" lon="6.61748">
        <ele>2411</ele>
        <time>2017-12-03T13:32:19Z</time>
      </trkpt>
      <trkpt lat="45.37738" lon="6.61759">
        <ele>2409</ele>
        <time>2017-12-03T13:32:21Z</time>
      </trkpt>
      <trkpt lat="45.3774" lon="6.61767">
        <ele>2408</ele>
        <time>2017-12-03T13:32:22Z</time>
      </trkpt>
      <trkpt lat="45.37735" lon="6.61773">
        <ele>2405</ele>
        <time>2017-12-03T13:32:25Z</time>
      </trkpt>
      <trkpt lat="45.37727" lon="6.61791">
        <ele>2401</ele>
        <time>2017-12-03T13:32:28Z</time>
      </trkpt>
      <trkpt lat="45.37734" lon="6.61801">
        <ele>2399</ele>
        <time>2017-12-03T13:32:30Z</time>
      </trkpt>
      <trkpt lat="45.37729" lon="6.61822">
        <ele>2394</ele>
        <time>2017-12-03T13:32:34Z</time>
      </trkpt>
      <trkpt lat="45.37724" lon="6.61833">
        <ele>2391</ele>
        <time>2017-12-03T13:32:36Z</time>
      </trkpt>
      <trkpt lat="45.37724" lon="6.61842">
        <ele>2390</ele>
        <time>2017-12-03T13:32:37Z</time>
      </trkpt>
      <trkpt lat="45.37719" lon="6.6185">
        <ele>2388</ele>
        <time>2017-12-03T13:32:39Z</time>
      </trkpt>
      <trkpt lat="45.37719" lon="6.61857">
        <ele>2386</ele>
        <time>2017-12-03T13:32:40Z</time>
      </trkpt>
      <trkpt lat="45.37717" lon="6.61863">
        <ele>2385</ele>
        <time>2017-12-03T13:32:41Z</time>
      </trkpt>
      <trkpt lat="45.37704" lon="6.61889">
        <ele>2377</ele>
        <time>2017-12-03T13:32:48Z</time>
      </trkpt>
      <trkpt lat="45.37704" lon="6.61897">
        <ele>2375</ele>
        <time>2017-12-03T13:32:49Z</time>
      </trkpt>
      <trkpt lat="45.37699" lon="6.61907">
        <ele>2373</ele>
        <time>2017-12-03T13:32:51Z</time>
      </trkpt>
      <trkpt lat="45.377" lon="6.61915">
        <ele>2371</ele>
        <time>2017-12-03T13:32:52Z</time>
      </trkpt>
      <trkpt lat="45.37695" lon="6.61925">
        <ele>2369</ele>
        <time>2017-12-03T13:32:54Z</time>
      </trkpt>
      <trkpt lat="45.37697" lon="6.61936">
        <ele>2366</ele>
        <time>2017-12-03T13:32:56Z</time>
      </trkpt>
      <trkpt lat="45.37693" lon="6.61941">
        <ele>2364</ele>
        <time>2017-12-03T13:32:59Z</time>
      </trkpt>
      <trkpt lat="45.37693" lon="6.61949">
        <ele>2361</ele>
        <time>2017-12-03T13:33:01Z</time>
      </trkpt>
      <trkpt lat="45.37686" lon="6.61956">
        <ele>2357</ele>
        <time>2017-12-03T13:33:04Z</time>
      </trkpt>
      <trkpt lat="45.37685" lon="6.61967">
        <ele>2355</ele>
        <time>2017-12-03T13:33:06Z</time>
      </trkpt>
      <trkpt lat="45.37681" lon="6.61977">
        <ele>2352</ele>
        <time>2017-12-03T13:33:08Z</time>
      </trkpt>
      <trkpt lat="45.37676" lon="6.61984">
        <ele>2350</ele>
        <time>2017-12-03T13:33:10Z</time>
      </trkpt>
      <trkpt lat="45.37674" lon="6.61992">
        <ele>2348</ele>
        <time>2017-12-03T13:33:12Z</time>
      </trkpt>
      <trkpt lat="45.37672" lon="6.61998">
        <ele>2345</ele>
        <time>2017-12-03T13:33:14Z</time>
      </trkpt>
      <trkpt lat="45.37672" lon="6.62007">
        <ele>2344</ele>
        <time>2017-12-03T13:33:16Z</time>
      </trkpt>
      <trkpt lat="45.37679" lon="6.62022">
        <ele>2341</ele>
        <time>2017-12-03T13:33:18Z</time>
      </trkpt>
      <trkpt lat="45.37681" lon="6.6204">
        <ele>2339</ele>
        <time>2017-12-03T13:33:20Z</time>
      </trkpt>
      <trkpt lat="45.37687" lon="6.62049">
        <ele>2336</ele>
        <time>2017-12-03T13:33:22Z</time>
      </trkpt>
      <trkpt lat="45.37695" lon="6.62081">
        <ele>2333</ele>
        <time>2017-12-03T13:33:27Z</time>
      </trkpt>
      <trkpt lat="45.37695" lon="6.62125">
        <ele>2328</ele>
        <time>2017-12-03T13:33:37Z</time>
      </trkpt>
      <trkpt lat="45.37686" lon="6.622">
        <ele>2323</ele>
        <time>2017-12-03T13:33:56Z</time>
      </trkpt>
      <trkpt lat="45.37674" lon="6.62249">
        <ele>2320</ele>
        <time>2017-12-03T13:34:04Z</time>
      </trkpt>
      <trkpt lat="45.37673" lon="6.62269">
        <ele>2319</ele>
        <time>2017-12-03T13:34:07Z</time>
      </trkpt>
      <trkpt lat="45.3767" lon="6.62275">
        <ele>2318</ele>
        <time>2017-12-03T13:34:08Z</time>
      </trkpt>
      <trkpt lat="45.37668" lon="6.62296">
        <ele>2315</ele>
        <time>2017-12-03T13:34:11Z</time>
      </trkpt>
      <trkpt lat="45.37672" lon="6.62339">
        <ele>2310</ele>
        <time>2017-12-03T13:34:16Z</time>
      </trkpt>
      <trkpt lat="45.3767" lon="6.62345">
        <ele>2310</ele>
        <time>2017-12-03T13:34:17Z</time>
      </trkpt>
      <trkpt lat="45.37669" lon="6.62355">
        <ele>2309</ele>
        <time>2017-12-03T13:34:18Z</time>
      </trkpt>
      <trkpt lat="45.37676" lon="6.62376">
        <ele>2307</ele>
        <time>2017-12-03T13:34:21Z</time>
      </trkpt>
      <trkpt lat="45.37702" lon="6.62605">
        <ele>2294</ele>
        <time>2017-12-03T13:34:46Z</time>
      </trkpt>
      <trkpt lat="45.37708" lon="6.62607">
        <ele>2294</ele>
        <time>2017-12-03T13:37:05Z</time>
      </trkpt>
      <trkpt lat="45.3772" lon="6.62619">
        <ele>2292</ele>
        <time>2017-12-03T13:37:08Z</time>
      </trkpt>
      <trkpt lat="45.37745" lon="6.62648">
        <ele>2288</ele>
        <time>2017-12-03T13:37:13Z</time>
      </trkpt>
      <trkpt lat="45.37787" lon="6.62691">
        <ele>2283</ele>
        <time>2017-12-03T13:37:20Z</time>
      </trkpt>
      <trkpt lat="45.37806" lon="6.62715">
        <ele>2280</ele>
        <time>2017-12-03T13:37:23Z</time>
      </trkpt>
      <trkpt lat="45.37807" lon="6.62725">
        <ele>2279</ele>
        <time>2017-12-03T13:37:24Z</time>
      </trkpt>
      <trkpt lat="45.37819" lon="6.62747">
        <ele>2278</ele>
        <time>2017-12-03T13:37:27Z</time>
      </trkpt>
      <trkpt lat="45.37838" lon="6.62776">
        <ele>2275</ele>
        <time>2017-12-03T13:37:31Z</time>
      </trkpt>
      <trkpt lat="45.37852" lon="6.62792">
        <ele>2271</ele>
        <time>2017-12-03T13:37:34Z</time>
      </trkpt>
      <trkpt lat="45.37866" lon="6.62806">
        <ele>2267</ele>
        <time>2017-12-03T13:37:37Z</time>
      </trkpt>
      <trkpt lat="45.37871" lon="6.62808">
        <ele>2266</ele>
        <time>2017-12-03T13:37:38Z</time>
      </trkpt>
      <trkpt lat="45.3788" lon="6.62817">
        <ele>2265</ele>
        <time>2017-12-03T13:37:40Z</time>
      </trkpt>
      <trkpt lat="45.37888" lon="6.62821">
        <ele>2264</ele>
        <time>2017-12-03T13:37:42Z</time>
      </trkpt>
      <trkpt lat="45.37895" lon="6.62832">
        <ele>2262</ele>
        <time>2017-12-03T13:37:44Z</time>
      </trkpt>
      <trkpt lat="45.3791" lon="6.62847">
        <ele>2261</ele>
        <time>2017-12-03T13:37:48Z</time>
      </trkpt>
      <trkpt lat="45.37916" lon="6.6285">
        <ele>2260</ele>
        <time>2017-12-03T13:37:49Z</time>
      </trkpt>
      <trkpt lat="45.3792" lon="6.62855">
        <ele>2260</ele>
        <time>2017-12-03T13:37:50Z</time>
      </trkpt>
      <trkpt lat="45.37927" lon="6.62859">
        <ele>2259</ele>
        <time>2017-12-03T13:37:52Z</time>
      </trkpt>
      <trkpt lat="45.37932" lon="6.62863">
        <ele>2258</ele>
        <time>2017-12-03T13:37:53Z</time>
      </trkpt>
      <trkpt lat="45.37942" lon="6.62867">
        <ele>2257</ele>
        <time>2017-12-03T13:37:55Z</time>
      </trkpt>
      <trkpt lat="45.37946" lon="6.62871">
        <ele>2257</ele>
        <time>2017-12-03T13:37:56Z</time>
      </trkpt>
      <trkpt lat="45.38087" lon="6.62906">
        <ele>2239</ele>
        <time>2017-12-03T13:38:18Z</time>
      </trkpt>
      <trkpt lat="45.3811" lon="6.6292">
        <ele>2237</ele>
        <time>2017-12-03T13:38:21Z</time>
      </trkpt>
      <trkpt lat="45.38154" lon="6.62959">
        <ele>2233</ele>
        <time>2017-12-03T13:38:27Z</time>
      </trkpt>
      <trkpt lat="45.38188" lon="6.62981">
        <ele>2229</ele>
        <time>2017-12-03T13:38:32Z</time>
      </trkpt>
      <trkpt lat="45.38221" lon="6.63017">
        <ele>2222</ele>
        <time>2017-12-03T13:38:38Z</time>
      </trkpt>
      <trkpt lat="45.38226" lon="6.63021">
        <ele>2221</ele>
        <time>2017-12-03T13:38:39Z</time>
      </trkpt>
      <trkpt lat="45.38244" lon="6.63036">
        <ele>2218</ele>
        <time>2017-12-03T13:38:42Z</time>
      </trkpt>
      <trkpt lat="45.38384" lon="6.63132">
        <ele>2206</ele>
        <time>2017-12-03T13:39:11Z</time>
      </trkpt>
      <trkpt lat="45.38405" lon="6.63139">
        <ele>2204</ele>
        <time>2017-12-03T13:39:14Z</time>
      </trkpt>
      <trkpt lat="45.38408" lon="6.63143">
        <ele>2203</ele>
        <time>2017-12-03T13:39:16Z</time>
      </trkpt>
      <trkpt lat="45.38419" lon="6.63149">
        <ele>2202</ele>
        <time>2017-12-03T13:39:18Z</time>
      </trkpt>
      <trkpt lat="45.38428" lon="6.63156">
        <ele>2201</ele>
        <time>2017-12-03T13:39:20Z</time>
      </trkpt>
      <trkpt lat="45.38435" lon="6.63158">
        <ele>2200</ele>
        <time>2017-12-03T13:39:21Z</time>
      </trkpt>
      <trkpt lat="45.38441" lon="6.63163">
        <ele>2199</ele>
        <time>2017-12-03T13:39:22Z</time>
      </trkpt>
      <trkpt lat="45.38445" lon="6.63168">
        <ele>2198</ele>
        <time>2017-12-03T13:39:24Z</time>
      </trkpt>
      <trkpt lat="45.38449" lon="6.63174">
        <ele>2197</ele>
        <time>2017-12-03T13:39:25Z</time>
      </trkpt>
      <trkpt lat="45.38461" lon="6.63181">
        <ele>2196</ele>
        <time>2017-12-03T13:39:27Z</time>
      </trkpt>
      <trkpt lat="45.38466" lon="6.63186">
        <ele>2195</ele>
        <time>2017-12-03T13:39:28Z</time>
      </trkpt>
      <trkpt lat="45.38544" lon="6.63223">
        <ele>2187</ele>
        <time>2017-12-03T13:39:42Z</time>
      </trkpt>
      <trkpt lat="45.38616" lon="6.63217">
        <ele>2183</ele>
        <time>2017-12-03T13:39:58Z</time>
      </trkpt>
      <trkpt lat="45.38622" lon="6.63215">
        <ele>2182</ele>
        <time>2017-12-03T13:41:15Z</time>
      </trkpt>
      <trkpt lat="45.38635" lon="6.63216">
        <ele>2181</ele>
        <time>2017-12-03T13:41:20Z</time>
      </trkpt>
      <trkpt lat="45.38735" lon="6.63259">
        <ele>2169</ele>
        <time>2017-12-03T13:41:33Z</time>
      </trkpt>
      <trkpt lat="45.38751" lon="6.6326">
        <ele>2167</ele>
        <time>2017-12-03T13:41:35Z</time>
      </trkpt>
      <trkpt lat="45.38764" lon="6.63266">
        <ele>2166</ele>
        <time>2017-12-03T13:41:37Z</time>
      </trkpt>
      <trkpt lat="45.38771" lon="6.63265">
        <ele>2165</ele>
        <time>2017-12-03T13:41:39Z</time>
      </trkpt>
      <trkpt lat="45.38777" lon="6.63264">
        <ele>2164</ele>
        <time>2017-12-03T13:41:41Z</time>
      </trkpt>
      <trkpt lat="45.38782" lon="6.63268">
        <ele>2163</ele>
        <time>2017-12-03T13:41:43Z</time>
      </trkpt>
      <trkpt lat="45.38803" lon="6.63259">
        <ele>2160</ele>
        <time>2017-12-03T13:41:57Z</time>
      </trkpt>
      <trkpt lat="45.38821" lon="6.63239">
        <ele>2158</ele>
        <time>2017-12-03T13:42:03Z</time>
      </trkpt>
      <trkpt lat="45.38827" lon="6.63232">
        <ele>2157</ele>
        <time>2017-12-03T13:42:05Z</time>
      </trkpt>
      <trkpt lat="45.38836" lon="6.63232">
        <ele>2155</ele>
        <time>2017-12-03T13:42:07Z</time>
      </trkpt>
      <trkpt lat="45.38842" lon="6.63234">
        <ele>2155</ele>
        <time>2017-12-03T13:42:08Z</time>
      </trkpt>
      <trkpt lat="45.38846" lon="6.63232">
        <ele>2154</ele>
        <time>2017-12-03T13:42:09Z</time>
      </trkpt>
      <trkpt lat="45.38849" lon="6.63224">
        <ele>2153</ele>
        <time>2017-12-03T13:42:11Z</time>
      </trkpt>
      <trkpt lat="45.38852" lon="6.63218">
        <ele>2152</ele>
        <time>2017-12-03T13:42:12Z</time>
      </trkpt>
      <trkpt lat="45.38857" lon="6.63217">
        <ele>2151</ele>
        <time>2017-12-03T13:42:13Z</time>
      </trkpt>
      <trkpt lat="45.38864" lon="6.6321">
        <ele>2149</ele>
        <time>2017-12-03T13:42:15Z</time>
      </trkpt>
      <trkpt lat="45.38869" lon="6.6321">
        <ele>2148</ele>
        <time>2017-12-03T13:42:16Z</time>
      </trkpt>
      <trkpt lat="45.38875" lon="6.632">
        <ele>2145</ele>
        <time>2017-12-03T13:42:18Z</time>
      </trkpt>
      <trkpt lat="45.38884" lon="6.632">
        <ele>2142</ele>
        <time>2017-12-03T13:42:20Z</time>
      </trkpt>
      <trkpt lat="45.38891" lon="6.63194">
        <ele>2140</ele>
        <time>2017-12-03T13:42:22Z</time>
      </trkpt>
      <trkpt lat="45.38896" lon="6.63192">
        <ele>2138</ele>
        <time>2017-12-03T13:42:23Z</time>
      </trkpt>
      <trkpt lat="45.38904" lon="6.63185">
        <ele>2135</ele>
        <time>2017-12-03T13:42:25Z</time>
      </trkpt>
      <trkpt lat="45.38908" lon="6.63183">
        <ele>2133</ele>
        <time>2017-12-03T13:42:26Z</time>
      </trkpt>
      <trkpt lat="45.38913" lon="6.6318">
        <ele>2130</ele>
        <time>2017-12-03T13:42:28Z</time>
      </trkpt>
      <trkpt lat="45.3893" lon="6.63168">
        <ele>2125</ele>
        <time>2017-12-03T13:42:31Z</time>
      </trkpt>
      <trkpt lat="45.38954" lon="6.63152">
        <ele>2120</ele>
        <time>2017-12-03T13:42:34Z</time>
      </trkpt>
      <trkpt lat="45.38961" lon="6.63146">
        <ele>2119</ele>
        <time>2017-12-03T13:42:35Z</time>
      </trkpt>
      <trkpt lat="45.38971" lon="6.6314">
        <ele>2116</ele>
        <time>2017-12-03T13:42:37Z</time>
      </trkpt>
      <trkpt lat="45.38976" lon="6.63138">
        <ele>2115</ele>
        <time>2017-12-03T13:42:38Z</time>
      </trkpt>
      <trkpt lat="45.38983" lon="6.63137">
        <ele>2113</ele>
        <time>2017-12-03T13:42:41Z</time>
      </trkpt>
      <trkpt lat="45.38988" lon="6.63131">
        <ele>2110</ele>
        <time>2017-12-03T13:42:43Z</time>
      </trkpt>
      <trkpt lat="45.39003" lon="6.63126">
        <ele>2107</ele>
        <time>2017-12-03T13:42:46Z</time>
      </trkpt>
      <trkpt lat="45.39006" lon="6.6312">
        <ele>2105</ele>
        <time>2017-12-03T13:42:47Z</time>
      </trkpt>
      <trkpt lat="45.3901" lon="6.63113">
        <ele>2104</ele>
        <time>2017-12-03T13:42:48Z</time>
      </trkpt>
      <trkpt lat="45.39014" lon="6.63108">
        <ele>2103</ele>
        <time>2017-12-03T13:42:49Z</time>
      </trkpt>
      <trkpt lat="45.39024" lon="6.63108">
        <ele>2099</ele>
        <time>2017-12-03T13:42:51Z</time>
      </trkpt>
      <trkpt lat="45.39036" lon="6.631">
        <ele>2097</ele>
        <time>2017-12-03T13:42:53Z</time>
      </trkpt>
      <trkpt lat="45.39051" lon="6.63101">
        <ele>2094</ele>
        <time>2017-12-03T13:42:56Z</time>
      </trkpt>
      <trkpt lat="45.39057" lon="6.63094">
        <ele>2093</ele>
        <time>2017-12-03T13:42:57Z</time>
      </trkpt>
      <trkpt lat="45.39072" lon="6.63094">
        <ele>2091</ele>
        <time>2017-12-03T13:43:00Z</time>
      </trkpt>
      <trkpt lat="45.39083" lon="6.63089">
        <ele>2090</ele>
        <time>2017-12-03T13:43:02Z</time>
      </trkpt>
      <trkpt lat="45.39089" lon="6.63087">
        <ele>2089</ele>
        <time>2017-12-03T13:43:03Z</time>
      </trkpt>
      <trkpt lat="45.39138" lon="6.63089">
        <ele>2087</ele>
        <time>2017-12-03T13:43:10Z</time>
      </trkpt>
      <trkpt lat="45.39173" lon="6.63103">
        <ele>2085</ele>
        <time>2017-12-03T13:43:17Z</time>
      </trkpt>
      <trkpt lat="45.39183" lon="6.63109">
        <ele>2085</ele>
        <time>2017-12-03T13:43:19Z</time>
      </trkpt>
      <trkpt lat="45.39194" lon="6.6311">
        <ele>2084</ele>
        <time>2017-12-03T13:43:21Z</time>
      </trkpt>
      <trkpt lat="45.39202" lon="6.63117">
        <ele>2083</ele>
        <time>2017-12-03T13:43:23Z</time>
      </trkpt>
      <trkpt lat="45.39224" lon="6.6312">
        <ele>2082</ele>
        <time>2017-12-03T13:43:27Z</time>
      </trkpt>
      <trkpt lat="45.39232" lon="6.63125">
        <ele>2081</ele>
        <time>2017-12-03T13:43:29Z</time>
      </trkpt>
      <trkpt lat="45.39235" lon="6.63136">
        <ele>2079</ele>
        <time>2017-12-03T13:43:36Z</time>
      </trkpt>
      <trkpt lat="45.39239" lon="6.63133">
        <ele>2079</ele>
        <time>2017-12-03T13:44:17Z</time>
      </trkpt>
      <trkpt lat="45.39279" lon="6.63139">
        <ele>2075</ele>
        <time>2017-12-03T13:44:26Z</time>
      </trkpt>
      <trkpt lat="45.39286" lon="6.63138">
        <ele>2074</ele>
        <time>2017-12-03T13:44:27Z</time>
      </trkpt>
      <trkpt lat="45.39316" lon="6.63142">
        <ele>2071</ele>
        <time>2017-12-03T13:44:33Z</time>
      </trkpt>
      <trkpt lat="45.39336" lon="6.63135">
        <ele>2068</ele>
        <time>2017-12-03T13:44:37Z</time>
      </trkpt>
      <trkpt lat="45.39342" lon="6.63136">
        <ele>2068</ele>
        <time>2017-12-03T13:44:38Z</time>
      </trkpt>
      <trkpt lat="45.3936" lon="6.63136">
        <ele>2065</ele>
        <time>2017-12-03T13:44:42Z</time>
      </trkpt>
      <trkpt lat="45.39365" lon="6.63134">
        <ele>2065</ele>
        <time>2017-12-03T13:44:43Z</time>
      </trkpt>
      <trkpt lat="45.39373" lon="6.63137">
        <ele>2063</ele>
        <time>2017-12-03T13:44:45Z</time>
      </trkpt>
      <trkpt lat="45.39387" lon="6.63134">
        <ele>2062</ele>
        <time>2017-12-03T13:44:48Z</time>
      </trkpt>
      <trkpt lat="45.39396" lon="6.63137">
        <ele>2060</ele>
        <time>2017-12-03T13:44:50Z</time>
      </trkpt>
      <trkpt lat="45.39408" lon="6.63134">
        <ele>2058</ele>
        <time>2017-12-03T13:44:52Z</time>
      </trkpt>
      <trkpt lat="45.39554" lon="6.63158">
        <ele>2047</ele>
        <time>2017-12-03T13:45:16Z</time>
      </trkpt>
      <trkpt lat="45.39599" lon="6.63149">
        <ele>2045</ele>
        <time>2017-12-03T13:45:30Z</time>
      </trkpt>
      <trkpt lat="45.39609" lon="6.63144">
        <ele>2044</ele>
        <time>2017-12-03T13:45:32Z</time>
      </trkpt>
      <trkpt lat="45.39631" lon="6.63144">
        <ele>2041</ele>
        <time>2017-12-03T13:45:36Z</time>
      </trkpt>
      <trkpt lat="45.39635" lon="6.6314">
        <ele>2039</ele>
        <time>2017-12-03T13:45:38Z</time>
      </trkpt>
      <trkpt lat="45.3966" lon="6.63131">
        <ele>2036</ele>
        <time>2017-12-03T13:45:43Z</time>
      </trkpt>
      <trkpt lat="45.39665" lon="6.63131">
        <ele>2035</ele>
        <time>2017-12-03T13:45:44Z</time>
      </trkpt>
      <trkpt lat="45.39671" lon="6.63134">
        <ele>2035</ele>
        <time>2017-12-03T13:45:45Z</time>
      </trkpt>
      <trkpt lat="45.39681" lon="6.63135">
        <ele>2033</ele>
        <time>2017-12-03T13:45:47Z</time>
      </trkpt>
      <trkpt lat="45.39686" lon="6.63133">
        <ele>2032</ele>
        <time>2017-12-03T13:45:50Z</time>
      </trkpt>
      <trkpt lat="45.39692" lon="6.63135">
        <ele>2031</ele>
        <time>2017-12-03T13:45:52Z</time>
      </trkpt>
      <trkpt lat="45.39688" lon="6.63146">
        <ele>2027</ele>
        <time>2017-12-03T13:46:23Z</time>
      </trkpt>
      <trkpt lat="45.39692" lon="6.63149">
        <ele>2027</ele>
        <time>2017-12-03T13:46:24Z</time>
      </trkpt>
      <trkpt lat="45.39707" lon="6.63155">
        <ele>2024</ele>
        <time>2017-12-03T13:46:27Z</time>
      </trkpt>
      <trkpt lat="45.39704" lon="6.63163">
        <ele>2024</ele>
        <time>2017-12-03T13:46:28Z</time>
      </trkpt>
      <trkpt lat="45.39706" lon="6.63177">
        <ele>2021</ele>
        <time>2017-12-03T13:46:30Z</time>
      </trkpt>
      <trkpt lat="45.39716" lon="6.63176">
        <ele>2019</ele>
        <time>2017-12-03T13:46:32Z</time>
      </trkpt>
      <trkpt lat="45.39721" lon="6.6318">
        <ele>2016</ele>
        <time>2017-12-03T13:46:34Z</time>
      </trkpt>
      <trkpt lat="45.39723" lon="6.63187">
        <ele>2015</ele>
        <time>2017-12-03T13:46:35Z</time>
      </trkpt>
      <trkpt lat="45.39719" lon="6.63203">
        <ele>2012</ele>
        <time>2017-12-03T13:46:37Z</time>
      </trkpt>
      <trkpt lat="45.39724" lon="6.63206">
        <ele>2010</ele>
        <time>2017-12-03T13:46:39Z</time>
      </trkpt>
      <trkpt lat="45.39726" lon="6.63213">
        <ele>2009</ele>
        <time>2017-12-03T13:46:40Z</time>
      </trkpt>
      <trkpt lat="45.39733" lon="6.63221">
        <ele>2007</ele>
        <time>2017-12-03T13:46:42Z</time>
      </trkpt>
      <trkpt lat="45.39735" lon="6.63231">
        <ele>2004</ele>
        <time>2017-12-03T13:46:44Z</time>
      </trkpt>
      <trkpt lat="45.39739" lon="6.63239">
        <ele>2002</ele>
        <time>2017-12-03T13:46:46Z</time>
      </trkpt>
      <trkpt lat="45.39738" lon="6.63249">
        <ele>2000</ele>
        <time>2017-12-03T13:46:48Z</time>
      </trkpt>
      <trkpt lat="45.3974" lon="6.63264">
        <ele>1996</ele>
        <time>2017-12-03T13:46:51Z</time>
      </trkpt>
      <trkpt lat="45.39747" lon="6.63273">
        <ele>1994</ele>
        <time>2017-12-03T13:46:53Z</time>
      </trkpt>
      <trkpt lat="45.39758" lon="6.63274">
        <ele>1993</ele>
        <time>2017-12-03T13:46:54Z</time>
      </trkpt>
      <trkpt lat="45.39765" lon="6.63279">
        <ele>1992</ele>
        <time>2017-12-03T13:46:55Z</time>
      </trkpt>
      <trkpt lat="45.39772" lon="6.63293">
        <ele>1989</ele>
        <time>2017-12-03T13:46:57Z</time>
      </trkpt>
      <trkpt lat="45.39786" lon="6.63328">
        <ele>1985</ele>
        <time>2017-12-03T13:47:02Z</time>
      </trkpt>
      <trkpt lat="45.39792" lon="6.6333">
        <ele>1983</ele>
        <time>2017-12-03T13:47:04Z</time>
      </trkpt>
      <trkpt lat="45.398" lon="6.63333">
        <ele>1981</ele>
        <time>2017-12-03T13:47:06Z</time>
      </trkpt>
      <trkpt lat="45.39867" lon="6.63391">
        <ele>1966</ele>
        <time>2017-12-03T13:47:23Z</time>
      </trkpt>
      <trkpt lat="45.39881" lon="6.634">
        <ele>1964</ele>
        <time>2017-12-03T13:47:26Z</time>
      </trkpt>
      <trkpt lat="45.39918" lon="6.63427">
        <ele>1955</ele>
        <time>2017-12-03T13:47:35Z</time>
      </trkpt>
      <trkpt lat="45.39933" lon="6.63435">
        <ele>1952</ele>
        <time>2017-12-03T13:47:38Z</time>
      </trkpt>
      <trkpt lat="45.39957" lon="6.63464">
        <ele>1945</ele>
        <time>2017-12-03T13:47:45Z</time>
      </trkpt>
      <trkpt lat="45.39964" lon="6.63475">
        <ele>1943</ele>
        <time>2017-12-03T13:47:48Z</time>
      </trkpt>
      <trkpt lat="45.39959" lon="6.63479">
        <ele>1943</ele>
        <time>2017-12-03T13:47:49Z</time>
      </trkpt>
      <trkpt lat="45.39957" lon="6.63497">
        <ele>1940</ele>
        <time>2017-12-03T13:47:53Z</time>
      </trkpt>
      <trkpt lat="45.3996" lon="6.63505">
        <ele>1939</ele>
        <time>2017-12-03T13:47:55Z</time>
      </trkpt>
      <trkpt lat="45.3997" lon="6.63515">
        <ele>1937</ele>
        <time>2017-12-03T13:47:59Z</time>
      </trkpt>
      <trkpt lat="45.39988" lon="6.63511">
        <ele>1935</ele>
        <time>2017-12-03T13:48:02Z</time>
      </trkpt>
      <trkpt lat="45.39993" lon="6.63516">
        <ele>1934</ele>
        <time>2017-12-03T13:48:04Z</time>
      </trkpt>
      <trkpt lat="45.39994" lon="6.63534">
        <ele>1931</ele>
        <time>2017-12-03T13:48:09Z</time>
      </trkpt>
      <trkpt lat="45.39998" lon="6.63552">
        <ele>1930</ele>
        <time>2017-12-03T13:48:13Z</time>
      </trkpt>
      <trkpt lat="45.40002" lon="6.6356">
        <ele>1929</ele>
        <time>2017-12-03T13:48:15Z</time>
      </trkpt>
    </trkseg>
  </trk>
</gpx>